<?xml version="1.0" encoding="utf-8"?>
<gpx xmlns:xsi="http://www.w3.org/2001/XMLSchema-instance" xmlns:xsd="http://www.w3.org/2001/XMLSchema" version="1.1" creator="Shapelink.com" xmlns="http://www.topografix.com/GPX/1/1" xmlns:gpxtpx="http://www.garmin.com/xmlschemas/TrackPointExtension/v1">
  <metadata>
    <name>Ejecutar 6.04 km, 2020-02-12</name>
    <desc></desc>
    <author><name>Per Rooth</name></author> 
    <time>2020-02-12T11:52:18Z</time>
  </metadata>
  <trk>
    <name>Ejecutar 6.04 km, 2020-02-12</name>
    <trkseg>
      <trkpt lat="56.873238862894" lon="14.792849104789">
        <ele>176</ele>
        <time>2020-02-12T11:52:18Z</time>
      </trkpt>
      <trkpt lat="56.873169544581" lon="14.79284231545">
        <ele>177.2</ele>
        <time>2020-02-12T11:52:21Z</time>
      </trkpt>
      <trkpt lat="56.872974497768" lon="14.792798561932">
        <ele>176.2</ele>
        <time>2020-02-12T11:52:29Z</time>
      </trkpt>
      <trkpt lat="56.87284021973" lon="14.792850194436">
        <ele>176</ele>
        <time>2020-02-12T11:52:34Z</time>
      </trkpt>
      <trkpt lat="56.872653806274" lon="14.792966451389">
        <ele>176.4</ele>
        <time>2020-02-12T11:52:41Z</time>
      </trkpt>
      <trkpt lat="56.872475187985" lon="14.792933342884">
        <ele>176.2</ele>
        <time>2020-02-12T11:52:48Z</time>
      </trkpt>
      <trkpt lat="56.872281063181" lon="14.79281214061">
        <ele>176.2</ele>
        <time>2020-02-12T11:52:53Z</time>
      </trkpt>
      <trkpt lat="56.872081406323" lon="14.792765285789">
        <ele>175.4</ele>
        <time>2020-02-12T11:53:00Z</time>
      </trkpt>
      <trkpt lat="56.872061038306" lon="14.792768219454">
        <ele>175.4</ele>
        <time>2020-02-12T11:53:01Z</time>
      </trkpt>
      <trkpt lat="56.871867248778" lon="14.792836783396">
        <ele>175.4</ele>
        <time>2020-02-12T11:53:10Z</time>
      </trkpt>
      <trkpt lat="56.871695419828" lon="14.792931079771">
        <ele>175</ele>
        <time>2020-02-12T11:53:17Z</time>
      </trkpt>
      <trkpt lat="56.871600704358" lon="14.792997464419">
        <ele>175</ele>
        <time>2020-02-12T11:53:21Z</time>
      </trkpt>
      <trkpt lat="56.871569691328" lon="14.793008025613">
        <ele>174.8</ele>
        <time>2020-02-12T11:53:22Z</time>
      </trkpt>
      <trkpt lat="56.871383361691" lon="14.792980030067">
        <ele>175.4</ele>
        <time>2020-02-12T11:53:29Z</time>
      </trkpt>
      <trkpt lat="56.871201055366" lon="14.792867377331">
        <ele>174.6</ele>
        <time>2020-02-12T11:53:36Z</time>
      </trkpt>
      <trkpt lat="56.871062586378" lon="14.792810296592">
        <ele>173.8</ele>
        <time>2020-02-12T11:53:41Z</time>
      </trkpt>
      <trkpt lat="56.871001985241" lon="14.792785486168">
        <ele>173.8</ele>
        <time>2020-02-12T11:53:43Z</time>
      </trkpt>
      <trkpt lat="56.870820014192" lon="14.792711641629">
        <ele>173.2</ele>
        <time>2020-02-12T11:53:49Z</time>
      </trkpt>
      <trkpt lat="56.870769219878" lon="14.792677862572">
        <ele>172.8</ele>
        <time>2020-02-12T11:53:51Z</time>
      </trkpt>
      <trkpt lat="56.870583141698" lon="14.792603598938">
        <ele>172.8</ele>
        <time>2020-02-12T11:53:58Z</time>
      </trkpt>
      <trkpt lat="56.87046059832" lon="14.792558839592">
        <ele>172.2</ele>
        <time>2020-02-12T11:54:02Z</time>
      </trkpt>
      <trkpt lat="56.870363033004" lon="14.792546015285">
        <ele>171.8</ele>
        <time>2020-02-12T11:54:05Z</time>
      </trkpt>
      <trkpt lat="56.870201765248" lon="14.792482396664">
        <ele>170.6</ele>
        <time>2020-02-12T11:54:11Z</time>
      </trkpt>
      <trkpt lat="56.870024990977" lon="14.792324816944">
        <ele>170.4</ele>
        <time>2020-02-12T11:54:18Z</time>
      </trkpt>
      <trkpt lat="56.869906219454" lon="14.792221803393">
        <ele>170.8</ele>
        <time>2020-02-12T11:54:23Z</time>
      </trkpt>
      <trkpt lat="56.869784262809" lon="14.791969005289">
        <ele>170.2</ele>
        <time>2020-02-12T11:54:30Z</time>
      </trkpt>
      <trkpt lat="56.869675381928" lon="14.791704304887">
        <ele>169.8</ele>
        <time>2020-02-12T11:54:38Z</time>
      </trkpt>
      <trkpt lat="56.869614696972" lon="14.791578995482">
        <ele>169.4</ele>
        <time>2020-02-12T11:54:41Z</time>
      </trkpt>
      <trkpt lat="56.86951260543" lon="14.79141571607">
        <ele>168.4</ele>
        <time>2020-02-12T11:54:46Z</time>
      </trkpt>
      <trkpt lat="56.869460889107" lon="14.791322593161">
        <ele>167.6</ele>
        <time>2020-02-12T11:54:49Z</time>
      </trkpt>
      <trkpt lat="56.869427277688" lon="14.791253023391">
        <ele>167.2</ele>
        <time>2020-02-12T11:54:51Z</time>
      </trkpt>
      <trkpt lat="56.869357959375" lon="14.79117683192">
        <ele>166</ele>
        <time>2020-02-12T11:54:54Z</time>
      </trkpt>
      <trkpt lat="56.869237511472" lon="14.791414626423">
        <ele>165.6</ele>
        <time>2020-02-12T11:55:02Z</time>
      </trkpt>
      <trkpt lat="56.869212281953" lon="14.791543372407">
        <ele>165</ele>
        <time>2020-02-12T11:55:05Z</time>
      </trkpt>
      <trkpt lat="56.869148914789" lon="14.791860627322">
        <ele>165</ele>
        <time>2020-02-12T11:55:12Z</time>
      </trkpt>
      <trkpt lat="56.869087224005" lon="14.792146533931">
        <ele>164.8</ele>
        <time>2020-02-12T11:55:19Z</time>
      </trkpt>
      <trkpt lat="56.869039782451" lon="14.792486587614">
        <ele>164.8</ele>
        <time>2020-02-12T11:55:27Z</time>
      </trkpt>
      <trkpt lat="56.868973816898" lon="14.792806021823">
        <ele>165.4</ele>
        <time>2020-02-12T11:55:34Z</time>
      </trkpt>
      <trkpt lat="56.868889159708" lon="14.793128473516">
        <ele>166.4</ele>
        <time>2020-02-12T11:55:41Z</time>
      </trkpt>
      <trkpt lat="56.86880768764" lon="14.793421085645">
        <ele>165.4</ele>
        <time>2020-02-12T11:55:48Z</time>
      </trkpt>
      <trkpt lat="56.868734010739" lon="14.793649660058">
        <ele>165.2</ele>
        <time>2020-02-12T11:55:53Z</time>
      </trkpt>
      <trkpt lat="56.868650443196" lon="14.793966495878">
        <ele>164.8</ele>
        <time>2020-02-12T11:55:59Z</time>
      </trkpt>
      <trkpt lat="56.868568719671" lon="14.79413480443">
        <ele>164.4</ele>
        <time>2020-02-12T11:56:04Z</time>
      </trkpt>
      <trkpt lat="56.86851599752" lon="14.79408870398">
        <ele>164.6</ele>
        <time>2020-02-12T11:56:07Z</time>
      </trkpt>
      <trkpt lat="56.868476099676" lon="14.794069257972">
        <ele>165</ele>
        <time>2020-02-12T11:56:09Z</time>
      </trkpt>
      <trkpt lat="56.868408206286" lon="14.793986780076">
        <ele>165.8</ele>
        <time>2020-02-12T11:56:14Z</time>
      </trkpt>
      <trkpt lat="56.868357831067" lon="14.793940511988">
        <ele>166.2</ele>
        <time>2020-02-12T11:56:16Z</time>
      </trkpt>
      <trkpt lat="56.868325979847" lon="14.793901703791">
        <ele>166.8</ele>
        <time>2020-02-12T11:56:18Z</time>
      </trkpt>
      <trkpt lat="56.868299073948" lon="14.793873121512">
        <ele>167.6</ele>
        <time>2020-02-12T11:56:20Z</time>
      </trkpt>
      <trkpt lat="56.868258337914" lon="14.793829535632">
        <ele>168.8</ele>
        <time>2020-02-12T11:56:22Z</time>
      </trkpt>
      <trkpt lat="56.868193629646" lon="14.793724510425">
        <ele>169.8</ele>
        <time>2020-02-12T11:56:26Z</time>
      </trkpt>
      <trkpt lat="56.868132441776" lon="14.793642619262">
        <ele>171</ele>
        <time>2020-02-12T11:56:30Z</time>
      </trkpt>
      <trkpt lat="56.867996068263" lon="14.793424522224">
        <ele>172.4</ele>
        <time>2020-02-12T11:56:38Z</time>
      </trkpt>
      <trkpt lat="56.867910572883" lon="14.793428461717">
        <ele>173</ele>
        <time>2020-02-12T11:56:42Z</time>
      </trkpt>
      <trkpt lat="56.867842763312" lon="14.793471041769">
        <ele>172.2</ele>
        <time>2020-02-12T11:56:46Z</time>
      </trkpt>
      <trkpt lat="56.867792052817" lon="14.793502976808">
        <ele>171.8</ele>
        <time>2020-02-12T11:56:49Z</time>
      </trkpt>
      <trkpt lat="56.867721477219" lon="14.793538767521">
        <ele>172</ele>
        <time>2020-02-12T11:56:52Z</time>
      </trkpt>
      <trkpt lat="56.867622906075" lon="14.793641697253">
        <ele>171.2</ele>
        <time>2020-02-12T11:56:56Z</time>
      </trkpt>
      <trkpt lat="56.86746406907" lon="14.793774298911">
        <ele>170.2</ele>
        <time>2020-02-12T11:57:02Z</time>
      </trkpt>
      <trkpt lat="56.867354936732" lon="14.793803635561">
        <ele>169.4</ele>
        <time>2020-02-12T11:57:06Z</time>
      </trkpt>
      <trkpt lat="56.867326857367" lon="14.793778406042">
        <ele>168.8</ele>
        <time>2020-02-12T11:57:08Z</time>
      </trkpt>
      <trkpt lat="56.867251587905" lon="14.79359501007">
        <ele>169.2</ele>
        <time>2020-02-12T11:57:15Z</time>
      </trkpt>
      <trkpt lat="56.867215294278" lon="14.793479507488">
        <ele>170</ele>
        <time>2020-02-12T11:57:18Z</time>
      </trkpt>
      <trkpt lat="56.867182185773" lon="14.793189912843">
        <ele>170.8</ele>
        <time>2020-02-12T11:57:25Z</time>
      </trkpt>
      <trkpt lat="56.86718327542" lon="14.793136436321">
        <ele>171</ele>
        <time>2020-02-12T11:57:26Z</time>
      </trkpt>
      <trkpt lat="56.867178497737" lon="14.792815912465">
        <ele>172.2</ele>
        <time>2020-02-12T11:57:32Z</time>
      </trkpt>
      <trkpt lat="56.867171456941" lon="14.792490443288">
        <ele>173.2</ele>
        <time>2020-02-12T11:57:39Z</time>
      </trkpt>
      <trkpt lat="56.867156369521" lon="14.792443756105">
        <ele>173</ele>
        <time>2020-02-12T11:57:40Z</time>
      </trkpt>
      <trkpt lat="56.867129463622" lon="14.792369911566">
        <ele>173.2</ele>
        <time>2020-02-12T11:57:42Z</time>
      </trkpt>
      <trkpt lat="56.867115884944" lon="14.792336970699">
        <ele>173.4</ele>
        <time>2020-02-12T11:57:43Z</time>
      </trkpt>
      <trkpt lat="56.867053858884" lon="14.7923603562">
        <ele>174</ele>
        <time>2020-02-12T11:57:49Z</time>
      </trkpt>
      <trkpt lat="56.867015218325" lon="14.792403355347">
        <ele>174.2</ele>
        <time>2020-02-12T11:57:52Z</time>
      </trkpt>
      <trkpt lat="56.867001723466" lon="14.79241819131">
        <ele>174.4</ele>
        <time>2020-02-12T11:57:53Z</time>
      </trkpt>
      <trkpt lat="56.866895943888" lon="14.792437553499">
        <ele>174.2</ele>
        <time>2020-02-12T11:58:00Z</time>
      </trkpt>
      <trkpt lat="56.866847245049" lon="14.792489856555">
        <ele>173.2</ele>
        <time>2020-02-12T11:58:03Z</time>
      </trkpt>
      <trkpt lat="56.866788571749" lon="14.792625727154">
        <ele>171.8</ele>
        <time>2020-02-12T11:58:07Z</time>
      </trkpt>
      <trkpt lat="56.866692682813" lon="14.79272161609">
        <ele>170.4</ele>
        <time>2020-02-12T11:58:11Z</time>
      </trkpt>
      <trkpt lat="56.866592938203" lon="14.792721113176">
        <ele>169.6</ele>
        <time>2020-02-12T11:58:15Z</time>
      </trkpt>
      <trkpt lat="56.866412056801" lon="14.792541489059">
        <ele>170.2</ele>
        <time>2020-02-12T11:58:22Z</time>
      </trkpt>
      <trkpt lat="56.866274426003" lon="14.792385920995">
        <ele>170.4</ele>
        <time>2020-02-12T11:58:28Z</time>
      </trkpt>
      <trkpt lat="56.866223464051" lon="14.792321631822">
        <ele>170.4</ele>
        <time>2020-02-12T11:58:31Z</time>
      </trkpt>
      <trkpt lat="56.866068985634" lon="14.79206447513">
        <ele>170.8</ele>
        <time>2020-02-12T11:58:38Z</time>
      </trkpt>
      <trkpt lat="56.866002014253" lon="14.791924078305">
        <ele>170.6</ele>
        <time>2020-02-12T11:58:42Z</time>
      </trkpt>
      <trkpt lat="56.866013078361" lon="14.791707741466">
        <ele>170.8</ele>
        <time>2020-02-12T11:58:48Z</time>
      </trkpt>
      <trkpt lat="56.866121037233" lon="14.791391660017">
        <ele>170.2</ele>
        <time>2020-02-12T11:58:57Z</time>
      </trkpt>
      <trkpt lat="56.866222122947" lon="14.791114135308">
        <ele>170.4</ele>
        <time>2020-02-12T11:59:03Z</time>
      </trkpt>
      <trkpt lat="56.866244334982" lon="14.791088570513">
        <ele>170.4</ele>
        <time>2020-02-12T11:59:04Z</time>
      </trkpt>
      <trkpt lat="56.86641800795" lon="14.790879190651">
        <ele>171</ele>
        <time>2020-02-12T11:59:13Z</time>
      </trkpt>
      <trkpt lat="56.866605259596" lon="14.790727310623">
        <ele>171</ele>
        <time>2020-02-12T11:59:22Z</time>
      </trkpt>
      <trkpt lat="56.866697460496" lon="14.790624967624">
        <ele>171.6</ele>
        <time>2020-02-12T11:59:26Z</time>
      </trkpt>
      <trkpt lat="56.866747584258" lon="14.790522373168">
        <ele>171</ele>
        <time>2020-02-12T11:59:29Z</time>
      </trkpt>
      <trkpt lat="56.866797121287" lon="14.790365547819">
        <ele>170.6</ele>
        <time>2020-02-12T11:59:32Z</time>
      </trkpt>
      <trkpt lat="56.866816651114" lon="14.790324476509">
        <ele>170</ele>
        <time>2020-02-12T11:59:33Z</time>
      </trkpt>
      <trkpt lat="56.86690080539" lon="14.790178044716">
        <ele>169</ele>
        <time>2020-02-12T11:59:37Z</time>
      </trkpt>
      <trkpt lat="56.866959394871" lon="14.790100763598">
        <ele>169.2</ele>
        <time>2020-02-12T11:59:40Z</time>
      </trkpt>
      <trkpt lat="56.867133570753" lon="14.789970089777">
        <ele>169</ele>
        <time>2020-02-12T11:59:48Z</time>
      </trkpt>
      <trkpt lat="56.867299532373" lon="14.789892473383">
        <ele>169</ele>
        <time>2020-02-12T11:59:54Z</time>
      </trkpt>
      <trkpt lat="56.867383519011" lon="14.789935891625">
        <ele>170</ele>
        <time>2020-02-12T11:59:58Z</time>
      </trkpt>
      <trkpt lat="56.867464488165" lon="14.790002779187">
        <ele>171.4</ele>
        <time>2020-02-12T12:00:01Z</time>
      </trkpt>
      <trkpt lat="56.867539003256" lon="14.790068409464">
        <ele>172.6</ele>
        <time>2020-02-12T12:00:06Z</time>
      </trkpt>
      <trkpt lat="56.867586863905" lon="14.790288853434">
        <ele>173.8</ele>
        <time>2020-02-12T12:00:11Z</time>
      </trkpt>
      <trkpt lat="56.86758644481" lon="14.790481888591">
        <ele>175.2</ele>
        <time>2020-02-12T12:00:16Z</time>
      </trkpt>
      <trkpt lat="56.86759734128" lon="14.790593535499">
        <ele>176.6</ele>
        <time>2020-02-12T12:00:19Z</time>
      </trkpt>
      <trkpt lat="56.867646962128" lon="14.79095387338">
        <ele>176.4</ele>
        <time>2020-02-12T12:00:28Z</time>
      </trkpt>
      <trkpt lat="56.867700354831" lon="14.791205917113">
        <ele>176.2</ele>
        <time>2020-02-12T12:00:34Z</time>
      </trkpt>
      <trkpt lat="56.867798339242" lon="14.791523088209">
        <ele>175.6</ele>
        <time>2020-02-12T12:00:41Z</time>
      </trkpt>
      <trkpt lat="56.867815941232" lon="14.791608415951">
        <ele>175.6</ele>
        <time>2020-02-12T12:00:43Z</time>
      </trkpt>
      <trkpt lat="56.867804877124" lon="14.791917121328">
        <ele>175.4</ele>
        <time>2020-02-12T12:00:50Z</time>
      </trkpt>
      <trkpt lat="56.867767074755" lon="14.792088698821">
        <ele>174.2</ele>
        <time>2020-02-12T12:00:54Z</time>
      </trkpt>
      <trkpt lat="56.867769673144" lon="14.792432524359">
        <ele>173.8</ele>
        <time>2020-02-12T12:01:01Z</time>
      </trkpt>
      <trkpt lat="56.867795740853" lon="14.792699655512">
        <ele>173.2</ele>
        <time>2020-02-12T12:01:07Z</time>
      </trkpt>
      <trkpt lat="56.86786304751" lon="14.792949352313">
        <ele>172</ele>
        <time>2020-02-12T12:01:14Z</time>
      </trkpt>
      <trkpt lat="56.868046192025" lon="14.793012551839">
        <ele>171</ele>
        <time>2020-02-12T12:01:25Z</time>
      </trkpt>
      <trkpt lat="56.868218104794" lon="14.793048342552">
        <ele>169.8</ele>
        <time>2020-02-12T12:01:30Z</time>
      </trkpt>
      <trkpt lat="56.868282310148" lon="14.793047504362">
        <ele>168.8</ele>
        <time>2020-02-12T12:01:33Z</time>
      </trkpt>
      <trkpt lat="56.868320783069" lon="14.79302504087">
        <ele>167.2</ele>
        <time>2020-02-12T12:01:35Z</time>
      </trkpt>
      <trkpt lat="56.868356406144" lon="14.79297474947">
        <ele>165.4</ele>
        <time>2020-02-12T12:01:37Z</time>
      </trkpt>
      <trkpt lat="56.86837182884" lon="14.792949771408">
        <ele>165</ele>
        <time>2020-02-12T12:01:38Z</time>
      </trkpt>
      <trkpt lat="56.868422623154" lon="14.792835274654">
        <ele>165</ele>
        <time>2020-02-12T12:01:42Z</time>
      </trkpt>
      <trkpt lat="56.868532845139" lon="14.792612064657">
        <ele>164.8</ele>
        <time>2020-02-12T12:01:49Z</time>
      </trkpt>
      <trkpt lat="56.868570982784" lon="14.792512990599">
        <ele>164.4</ele>
        <time>2020-02-12T12:01:52Z</time>
      </trkpt>
      <trkpt lat="56.868654382689" lon="14.792187353784">
        <ele>164.4</ele>
        <time>2020-02-12T12:01:59Z</time>
      </trkpt>
      <trkpt lat="56.868713475084" lon="14.791941009743">
        <ele>164</ele>
        <time>2020-02-12T12:02:04Z</time>
      </trkpt>
      <trkpt lat="56.868911120286" lon="14.791836738907">
        <ele>163.4</ele>
        <time>2020-02-12T12:02:10Z</time>
      </trkpt>
      <trkpt lat="56.869066604531" lon="14.791733725356">
        <ele>162.8</ele>
        <time>2020-02-12T12:02:15Z</time>
      </trkpt>
      <trkpt lat="56.86909099586" lon="14.791434826802">
        <ele>162</ele>
        <time>2020-02-12T12:02:19Z</time>
      </trkpt>
      <trkpt lat="56.869106167099" lon="14.791063257175">
        <ele>161.4</ele>
        <time>2020-02-12T12:02:25Z</time>
      </trkpt>
      <trkpt lat="56.868988149947" lon="14.790539639882">
        <ele>163.6</ele>
        <time>2020-02-12T12:02:37Z</time>
      </trkpt>
      <trkpt lat="56.868959064754" lon="14.790412067364">
        <ele>164</ele>
        <time>2020-02-12T12:02:41Z</time>
      </trkpt>
      <trkpt lat="56.868954873804" lon="14.790360099584">
        <ele>164</ele>
        <time>2020-02-12T12:02:44Z</time>
      </trkpt>
      <trkpt lat="56.868925704792" lon="14.790275526213">
        <ele>165.4</ele>
        <time>2020-02-12T12:02:47Z</time>
      </trkpt>
      <trkpt lat="56.868910533553" lon="14.790239400224">
        <ele>166.4</ele>
        <time>2020-02-12T12:02:48Z</time>
      </trkpt>
      <trkpt lat="56.868891674278" lon="14.79019614962">
        <ele>167.4</ele>
        <time>2020-02-12T12:02:49Z</time>
      </trkpt>
      <trkpt lat="56.86885462628" lon="14.790123143271">
        <ele>168.6</ele>
        <time>2020-02-12T12:02:51Z</time>
      </trkpt>
      <trkpt lat="56.868759743172" lon="14.790025494136">
        <ele>169.6</ele>
        <time>2020-02-12T12:02:56Z</time>
      </trkpt>
      <trkpt lat="56.868694112895" lon="14.78994804538">
        <ele>170.6</ele>
        <time>2020-02-12T12:02:59Z</time>
      </trkpt>
      <trkpt lat="56.868618843433" lon="14.789919882196">
        <ele>172</ele>
        <time>2020-02-12T12:03:03Z</time>
      </trkpt>
      <trkpt lat="56.868576431019" lon="14.789923318775">
        <ele>172.6</ele>
        <time>2020-02-12T12:03:05Z</time>
      </trkpt>
      <trkpt lat="56.868523792687" lon="14.789946536638">
        <ele>173.2</ele>
        <time>2020-02-12T12:03:07Z</time>
      </trkpt>
      <trkpt lat="56.868494791313" lon="14.789951565778">
        <ele>173.4</ele>
        <time>2020-02-12T12:03:08Z</time>
      </trkpt>
      <trkpt lat="56.868423461344" lon="14.790048879637">
        <ele>174.6</ele>
        <time>2020-02-12T12:03:11Z</time>
      </trkpt>
      <trkpt lat="56.868406613725" lon="14.790085676178">
        <ele>174.8</ele>
        <time>2020-02-12T12:03:12Z</time>
      </trkpt>
      <trkpt lat="56.86836931427" lon="14.790186678073">
        <ele>175.8</ele>
        <time>2020-02-12T12:03:15Z</time>
      </trkpt>
      <trkpt lat="56.86833243391" lon="14.790238562034">
        <ele>176.4</ele>
        <time>2020-02-12T12:03:17Z</time>
      </trkpt>
      <trkpt lat="56.868312233531" lon="14.790280303896">
        <ele>177</ele>
        <time>2020-02-12T12:03:18Z</time>
      </trkpt>
      <trkpt lat="56.868278203017" lon="14.790397818134">
        <ele>178</ele>
        <time>2020-02-12T12:03:21Z</time>
      </trkpt>
      <trkpt lat="56.868270156393" lon="14.790467890818">
        <ele>178.6</ele>
        <time>2020-02-12T12:03:23Z</time>
      </trkpt>
      <trkpt lat="56.868308629314" lon="14.790482223867">
        <ele>180.2</ele>
        <time>2020-02-12T12:03:28Z</time>
      </trkpt>
      <trkpt lat="56.868365542415" lon="14.790472668501">
        <ele>179</ele>
        <time>2020-02-12T12:03:35Z</time>
      </trkpt>
      <trkpt lat="56.868389514649" lon="14.790483900247">
        <ele>177.8</ele>
        <time>2020-02-12T12:03:38Z</time>
      </trkpt>
      <trkpt lat="56.868424550991" lon="14.790490773405">
        <ele>176.4</ele>
        <time>2020-02-12T12:03:41Z</time>
      </trkpt>
      <trkpt lat="56.868455480202" lon="14.790497227468">
        <ele>175.2</ele>
        <time>2020-02-12T12:03:43Z</time>
      </trkpt>
      <trkpt lat="56.868478781884" lon="14.790513069259">
        <ele>174.2</ele>
        <time>2020-02-12T12:03:45Z</time>
      </trkpt>
      <trkpt lat="56.868529827655" lon="14.790545171936">
        <ele>173</ele>
        <time>2020-02-12T12:03:48Z</time>
      </trkpt>
      <trkpt lat="56.868580370512" lon="14.790585153599">
        <ele>171.8</ele>
        <time>2020-02-12T12:03:51Z</time>
      </trkpt>
      <trkpt lat="56.868619849261" lon="14.790605605435">
        <ele>170.6</ele>
        <time>2020-02-12T12:03:53Z</time>
      </trkpt>
      <trkpt lat="56.868719174776" lon="14.790659333414">
        <ele>169.6</ele>
        <time>2020-02-12T12:03:57Z</time>
      </trkpt>
      <trkpt lat="56.868782039026" lon="14.790685736399">
        <ele>167.8</ele>
        <time>2020-02-12T12:04:00Z</time>
      </trkpt>
      <trkpt lat="56.868802239405" lon="14.790702751656">
        <ele>166.8</ele>
        <time>2020-02-12T12:04:01Z</time>
      </trkpt>
      <trkpt lat="56.868830402589" lon="14.790721359474">
        <ele>165.8</ele>
        <time>2020-02-12T12:04:03Z</time>
      </trkpt>
      <trkpt lat="56.868864349284" lon="14.790737955636">
        <ele>164.2</ele>
        <time>2020-02-12T12:04:05Z</time>
      </trkpt>
      <trkpt lat="56.868890081717" lon="14.790738877645">
        <ele>163</ele>
        <time>2020-02-12T12:04:07Z</time>
      </trkpt>
      <trkpt lat="56.868921346204" lon="14.790728903184">
        <ele>161.6</ele>
        <time>2020-02-12T12:04:11Z</time>
      </trkpt>
      <trkpt lat="56.868951604863" lon="14.79072253294">
        <ele>161.4</ele>
        <time>2020-02-12T12:04:13Z</time>
      </trkpt>
      <trkpt lat="56.868909527725" lon="14.790639971225">
        <ele>163</ele>
        <time>2020-02-12T12:04:18Z</time>
      </trkpt>
      <trkpt lat="56.868873653193" lon="14.790597307354">
        <ele>164.4</ele>
        <time>2020-02-12T12:04:21Z</time>
      </trkpt>
      <trkpt lat="56.868841466697" lon="14.790586410884">
        <ele>166</ele>
        <time>2020-02-12T12:04:23Z</time>
      </trkpt>
      <trkpt lat="56.868792516401" lon="14.790591272386">
        <ele>167</ele>
        <time>2020-02-12T12:04:25Z</time>
      </trkpt>
      <trkpt lat="56.868729149237" lon="14.790561013727">
        <ele>168.4</ele>
        <time>2020-02-12T12:04:28Z</time>
      </trkpt>
      <trkpt lat="56.868681037131" lon="14.790547267411">
        <ele>169.6</ele>
        <time>2020-02-12T12:04:30Z</time>
      </trkpt>
      <trkpt lat="56.868622950564" lon="14.790540729529">
        <ele>171.6</ele>
        <time>2020-02-12T12:04:32Z</time>
      </trkpt>
      <trkpt lat="56.868595457932" lon="14.790537712045">
        <ele>172.8</ele>
        <time>2020-02-12T12:04:33Z</time>
      </trkpt>
      <trkpt lat="56.868544579799" lon="14.790536119484">
        <ele>174</ele>
        <time>2020-02-12T12:04:35Z</time>
      </trkpt>
      <trkpt lat="56.868498479349" lon="14.790539136968">
        <ele>175.4</ele>
        <time>2020-02-12T12:04:37Z</time>
      </trkpt>
      <trkpt lat="56.868449193777" lon="14.790528324317">
        <ele>177</ele>
        <time>2020-02-12T12:04:39Z</time>
      </trkpt>
      <trkpt lat="56.868430669778" lon="14.790527067032">
        <ele>177.8</ele>
        <time>2020-02-12T12:04:40Z</time>
      </trkpt>
      <trkpt lat="56.868410720856" lon="14.790524384824">
        <ele>178.2</ele>
        <time>2020-02-12T12:04:41Z</time>
      </trkpt>
      <trkpt lat="56.868305947106" lon="14.790552631827">
        <ele>179</ele>
        <time>2020-02-12T12:04:46Z</time>
      </trkpt>
      <trkpt lat="56.868295888826" lon="14.790543076461">
        <ele>179.2</ele>
        <time>2020-02-12T12:04:47Z</time>
      </trkpt>
      <trkpt lat="56.868275269352" lon="14.790549614343">
        <ele>179.6</ele>
        <time>2020-02-12T12:04:48Z</time>
      </trkpt>
      <trkpt lat="56.868216679871" lon="14.790576520242">
        <ele>179.8</ele>
        <time>2020-02-12T12:04:51Z</time>
      </trkpt>
      <trkpt lat="56.868142751513" lon="14.790519020408">
        <ele>179.2</ele>
        <time>2020-02-12T12:04:56Z</time>
      </trkpt>
      <trkpt lat="56.868140572219" lon="14.790475434528">
        <ele>178.2</ele>
        <time>2020-02-12T12:04:58Z</time>
      </trkpt>
      <trkpt lat="56.868170244145" lon="14.790406702948">
        <ele>177</ele>
        <time>2020-02-12T12:05:02Z</time>
      </trkpt>
      <trkpt lat="56.86819999989" lon="14.790335121522">
        <ele>176.4</ele>
        <time>2020-02-12T12:05:05Z</time>
      </trkpt>
      <trkpt lat="56.868213662387" lon="14.7902564993">
        <ele>175.8</ele>
        <time>2020-02-12T12:05:07Z</time>
      </trkpt>
      <trkpt lat="56.868255907163" lon="14.790145774401">
        <ele>174.4</ele>
        <time>2020-02-12T12:05:11Z</time>
      </trkpt>
      <trkpt lat="56.868287590745" lon="14.790113504086">
        <ele>173.4</ele>
        <time>2020-02-12T12:05:14Z</time>
      </trkpt>
      <trkpt lat="56.868320028698" lon="14.790046700343">
        <ele>172.2</ele>
        <time>2020-02-12T12:05:17Z</time>
      </trkpt>
      <trkpt lat="56.86835674142" lon="14.789996241305">
        <ele>171.2</ele>
        <time>2020-02-12T12:05:20Z</time>
      </trkpt>
      <trkpt lat="56.868447768854" lon="14.789953242158">
        <ele>170</ele>
        <time>2020-02-12T12:05:26Z</time>
      </trkpt>
      <trkpt lat="56.868583387996" lon="14.78999749859">
        <ele>168.8</ele>
        <time>2020-02-12T12:05:32Z</time>
      </trkpt>
      <trkpt lat="56.868673493421" lon="14.790072851871">
        <ele>167.4</ele>
        <time>2020-02-12T12:05:36Z</time>
      </trkpt>
      <trkpt lat="56.868754546394" lon="14.790199250923">
        <ele>166</ele>
        <time>2020-02-12T12:05:40Z</time>
      </trkpt>
      <trkpt lat="56.868766783968" lon="14.790235041636">
        <ele>165.4</ele>
        <time>2020-02-12T12:05:41Z</time>
      </trkpt>
      <trkpt lat="56.868801233577" lon="14.790282650828">
        <ele>164.8</ele>
        <time>2020-02-12T12:05:42Z</time>
      </trkpt>
      <trkpt lat="56.868869546062" lon="14.790429082621">
        <ele>163.8</ele>
        <time>2020-02-12T12:05:45Z</time>
      </trkpt>
      <trkpt lat="56.868915730331" lon="14.79054651304">
        <ele>162.8</ele>
        <time>2020-02-12T12:05:48Z</time>
      </trkpt>
      <trkpt lat="56.8689619146" lon="14.790669224056">
        <ele>161.8</ele>
        <time>2020-02-12T12:05:51Z</time>
      </trkpt>
      <trkpt lat="56.868949928483" lon="14.790420952178">
        <ele>163.2</ele>
        <time>2020-02-12T12:06:03Z</time>
      </trkpt>
      <trkpt lat="56.868958478021" lon="14.790366553647">
        <ele>164.4</ele>
        <time>2020-02-12T12:06:05Z</time>
      </trkpt>
      <trkpt lat="56.868930733932" lon="14.790283153742">
        <ele>165.6</ele>
        <time>2020-02-12T12:06:07Z</time>
      </trkpt>
      <trkpt lat="56.868853033719" lon="14.790165555685">
        <ele>165.8</ele>
        <time>2020-02-12T12:06:10Z</time>
      </trkpt>
      <trkpt lat="56.868774495316" lon="14.790103697263">
        <ele>166.6</ele>
        <time>2020-02-12T12:06:13Z</time>
      </trkpt>
      <trkpt lat="56.868721270251" lon="14.790052986768">
        <ele>168.2</ele>
        <time>2020-02-12T12:06:15Z</time>
      </trkpt>
      <trkpt lat="56.868669637747" lon="14.79001593877">
        <ele>170.2</ele>
        <time>2020-02-12T12:06:17Z</time>
      </trkpt>
      <trkpt lat="56.868636277785" lon="14.789996073667">
        <ele>170.6</ele>
        <time>2020-02-12T12:06:18Z</time>
      </trkpt>
      <trkpt lat="56.868609707162" lon="14.78997486746">
        <ele>171.2</ele>
        <time>2020-02-12T12:06:19Z</time>
      </trkpt>
      <trkpt lat="56.86852689399" lon="14.789954080348">
        <ele>172.4</ele>
        <time>2020-02-12T12:06:22Z</time>
      </trkpt>
      <trkpt lat="56.868456234573" lon="14.789958690393">
        <ele>172.4</ele>
        <time>2020-02-12T12:06:25Z</time>
      </trkpt>
      <trkpt lat="56.868419773308" lon="14.789976292383">
        <ele>172.4</ele>
        <time>2020-02-12T12:06:27Z</time>
      </trkpt>
      <trkpt lat="56.868335702851" lon="14.790147199324">
        <ele>173.8</ele>
        <time>2020-02-12T12:06:32Z</time>
      </trkpt>
      <trkpt lat="56.868317178852" lon="14.790175781603">
        <ele>174.8</ele>
        <time>2020-02-12T12:06:34Z</time>
      </trkpt>
      <trkpt lat="56.868278203017" lon="14.790265216476">
        <ele>175.8</ele>
        <time>2020-02-12T12:06:36Z</time>
      </trkpt>
      <trkpt lat="56.868270491669" lon="14.790306874519">
        <ele>176.2</ele>
        <time>2020-02-12T12:06:37Z</time>
      </trkpt>
      <trkpt lat="56.86826873147" lon="14.790366805104">
        <ele>177</ele>
        <time>2020-02-12T12:06:39Z</time>
      </trkpt>
      <trkpt lat="56.868268396194" lon="14.79040988807">
        <ele>177.2</ele>
        <time>2020-02-12T12:06:40Z</time>
      </trkpt>
      <trkpt lat="56.868288345116" lon="14.790456910529">
        <ele>178.4</ele>
        <time>2020-02-12T12:06:44Z</time>
      </trkpt>
      <trkpt lat="56.86829639174" lon="14.790465040972">
        <ele>179.8</ele>
        <time>2020-02-12T12:06:45Z</time>
      </trkpt>
      <trkpt lat="56.868307958762" lon="14.790479122564">
        <ele>179.4</ele>
        <time>2020-02-12T12:06:46Z</time>
      </trkpt>
      <trkpt lat="56.868310808608" lon="14.79047610508">
        <ele>178.6</ele>
        <time>2020-02-12T12:06:47Z</time>
      </trkpt>
      <trkpt lat="56.868320196336" lon="14.790479038745">
        <ele>179.6</ele>
        <time>2020-02-12T12:06:48Z</time>
      </trkpt>
      <trkpt lat="56.868330254616" lon="14.790481469496">
        <ele>178.6</ele>
        <time>2020-02-12T12:06:49Z</time>
      </trkpt>
      <trkpt lat="56.868338468878" lon="14.790470908302">
        <ele>177.6</ele>
        <time>2020-02-12T12:06:50Z</time>
      </trkpt>
      <trkpt lat="56.868380965111" lon="14.790469483379">
        <ele>177.2</ele>
        <time>2020-02-12T12:06:54Z</time>
      </trkpt>
      <trkpt lat="56.868401500766" lon="14.790460682384">
        <ele>176.4</ele>
        <time>2020-02-12T12:06:56Z</time>
      </trkpt>
      <trkpt lat="56.868412983969" lon="14.790468645189">
        <ele>176</ele>
        <time>2020-02-12T12:06:57Z</time>
      </trkpt>
      <trkpt lat="56.868436453289" lon="14.79046101766">
        <ele>175</ele>
        <time>2020-02-12T12:06:59Z</time>
      </trkpt>
      <trkpt lat="56.868461179894" lon="14.790457581081">
        <ele>173.6</ele>
        <time>2020-02-12T12:07:01Z</time>
      </trkpt>
      <trkpt lat="56.868500993919" lon="14.790468896646">
        <ele>172.4</ele>
        <time>2020-02-12T12:07:03Z</time>
      </trkpt>
      <trkpt lat="56.868569725499" lon="14.790509716499">
        <ele>171.2</ele>
        <time>2020-02-12T12:07:06Z</time>
      </trkpt>
      <trkpt lat="56.868630075179" lon="14.790553553836">
        <ele>170</ele>
        <time>2020-02-12T12:07:09Z</time>
      </trkpt>
      <trkpt lat="56.86868447371" lon="14.790567886885">
        <ele>168.8</ele>
        <time>2020-02-12T12:07:12Z</time>
      </trkpt>
      <trkpt lat="56.868722695174" lon="14.790584985961">
        <ele>167.8</ele>
        <time>2020-02-12T12:07:14Z</time>
      </trkpt>
      <trkpt lat="56.868784637415" lon="14.790616837181">
        <ele>166.8</ele>
        <time>2020-02-12T12:07:17Z</time>
      </trkpt>
      <trkpt lat="56.868849010407" lon="14.790632343696">
        <ele>165.4</ele>
        <time>2020-02-12T12:07:20Z</time>
      </trkpt>
      <trkpt lat="56.86891916691" lon="14.790652208799">
        <ele>162.4</ele>
        <time>2020-02-12T12:07:23Z</time>
      </trkpt>
      <trkpt lat="56.869009607611" lon="14.790711385013">
        <ele>160.4</ele>
        <time>2020-02-12T12:07:27Z</time>
      </trkpt>
      <trkpt lat="56.868972727251" lon="14.790639384492">
        <ele>161.8</ele>
        <time>2020-02-12T12:07:39Z</time>
      </trkpt>
      <trkpt lat="56.86894347442" lon="14.790620525217">
        <ele>163</ele>
        <time>2020-02-12T12:07:42Z</time>
      </trkpt>
      <trkpt lat="56.868865774207" lon="14.790646425288">
        <ele>164.4</ele>
        <time>2020-02-12T12:07:45Z</time>
      </trkpt>
      <trkpt lat="56.868806430355" lon="14.790629326212">
        <ele>165.6</ele>
        <time>2020-02-12T12:07:48Z</time>
      </trkpt>
      <trkpt lat="56.868661674942" lon="14.790622955968">
        <ele>166.8</ele>
        <time>2020-02-12T12:07:53Z</time>
      </trkpt>
      <trkpt lat="56.868608030782" lon="14.790613316783">
        <ele>167.8</ele>
        <time>2020-02-12T12:07:55Z</time>
      </trkpt>
      <trkpt lat="56.868566540377" lon="14.79058590797">
        <ele>169.2</ele>
        <time>2020-02-12T12:07:57Z</time>
      </trkpt>
      <trkpt lat="56.868524966153" lon="14.790583728676">
        <ele>170.4</ele>
        <time>2020-02-12T12:07:59Z</time>
      </trkpt>
      <trkpt lat="56.868488001974" lon="14.79057752607">
        <ele>171.8</ele>
        <time>2020-02-12T12:08:01Z</time>
      </trkpt>
      <trkpt lat="56.868450451062" lon="14.790577274613">
        <ele>173</ele>
        <time>2020-02-12T12:08:03Z</time>
      </trkpt>
      <trkpt lat="56.868405859354" lon="14.790601665942">
        <ele>174.6</ele>
        <time>2020-02-12T12:08:05Z</time>
      </trkpt>
      <trkpt lat="56.868362776388" lon="14.790638378664">
        <ele>175.8</ele>
        <time>2020-02-12T12:08:07Z</time>
      </trkpt>
      <trkpt lat="56.86818994161" lon="14.790543747013">
        <ele>174.8</ele>
        <time>2020-02-12T12:08:18Z</time>
      </trkpt>
      <trkpt lat="56.868193462008" lon="14.790454060683">
        <ele>173.8</ele>
        <time>2020-02-12T12:08:23Z</time>
      </trkpt>
      <trkpt lat="56.868216260776" lon="14.790329924744">
        <ele>172.4</ele>
        <time>2020-02-12T12:08:27Z</time>
      </trkpt>
      <trkpt lat="56.868237383164" lon="14.790230934505">
        <ele>171</ele>
        <time>2020-02-12T12:08:30Z</time>
      </trkpt>
      <trkpt lat="56.868268312375" lon="14.790145355306">
        <ele>170</ele>
        <time>2020-02-12T12:08:33Z</time>
      </trkpt>
      <trkpt lat="56.868349365348" lon="14.79004862818">
        <ele>168.8</ele>
        <time>2020-02-12T12:08:40Z</time>
      </trkpt>
      <trkpt lat="56.8683751816" lon="14.790029433629">
        <ele>167.6</ele>
        <time>2020-02-12T12:08:43Z</time>
      </trkpt>
      <trkpt lat="56.868453803822" lon="14.789976376202">
        <ele>166.6</ele>
        <time>2020-02-12T12:08:48Z</time>
      </trkpt>
      <trkpt lat="56.86858808186" lon="14.790005126119">
        <ele>165.6</ele>
        <time>2020-02-12T12:08:54Z</time>
      </trkpt>
      <trkpt lat="56.868647677169" lon="14.79003773171">
        <ele>164.4</ele>
        <time>2020-02-12T12:08:57Z</time>
      </trkpt>
      <trkpt lat="56.868713558903" lon="14.79009891958">
        <ele>163.4</ele>
        <time>2020-02-12T12:09:00Z</time>
      </trkpt>
      <trkpt lat="56.868776926067" lon="14.79016765116">
        <ele>162.2</ele>
        <time>2020-02-12T12:09:03Z</time>
      </trkpt>
      <trkpt lat="56.868823445612" lon="14.790272089634">
        <ele>161.2</ele>
        <time>2020-02-12T12:09:06Z</time>
      </trkpt>
      <trkpt lat="56.868865103655" lon="14.790382982171">
        <ele>159.8</ele>
        <time>2020-02-12T12:09:09Z</time>
      </trkpt>
      <trkpt lat="56.868912209933" lon="14.790544166108">
        <ele>158.6</ele>
        <time>2020-02-12T12:09:14Z</time>
      </trkpt>
      <trkpt lat="56.868947749189" lon="14.790633265705">
        <ele>157.2</ele>
        <time>2020-02-12T12:09:18Z</time>
      </trkpt>
      <trkpt lat="56.868964596808" lon="14.790587165255">
        <ele>157.2</ele>
        <time>2020-02-12T12:09:20Z</time>
      </trkpt>
      <trkpt lat="56.868993095268" lon="14.790488929387">
        <ele>157.6</ele>
        <time>2020-02-12T12:09:23Z</time>
      </trkpt>
      <trkpt lat="56.868986725024" lon="14.790435620503">
        <ele>158.2</ele>
        <time>2020-02-12T12:09:25Z</time>
      </trkpt>
      <trkpt lat="56.868981025332" lon="14.790397818134">
        <ele>158.6</ele>
        <time>2020-02-12T12:09:26Z</time>
      </trkpt>
      <trkpt lat="56.868915227417" lon="14.790285668312">
        <ele>159.8</ele>
        <time>2020-02-12T12:09:29Z</time>
      </trkpt>
      <trkpt lat="56.868869210786" lon="14.790215595628">
        <ele>160.8</ele>
        <time>2020-02-12T12:09:31Z</time>
      </trkpt>
      <trkpt lat="56.868773238031" lon="14.790082910151">
        <ele>162.2</ele>
        <time>2020-02-12T12:09:34Z</time>
      </trkpt>
      <trkpt lat="56.868730071246" lon="14.790031193828">
        <ele>163.8</ele>
        <time>2020-02-12T12:09:36Z</time>
      </trkpt>
      <trkpt lat="56.86867273905" lon="14.789965479732">
        <ele>164.8</ele>
        <time>2020-02-12T12:09:39Z</time>
      </trkpt>
      <trkpt lat="56.868645665513" lon="14.78995726547">
        <ele>165</ele>
        <time>2020-02-12T12:09:40Z</time>
      </trkpt>
      <trkpt lat="56.868534689157" lon="14.78989440122">
        <ele>166.2</ele>
        <time>2020-02-12T12:09:46Z</time>
      </trkpt>
      <trkpt lat="56.868504095222" lon="14.789899095084">
        <ele>167.4</ele>
        <time>2020-02-12T12:09:48Z</time>
      </trkpt>
      <trkpt lat="56.868482805196" lon="14.789919044006">
        <ele>168</ele>
        <time>2020-02-12T12:09:49Z</time>
      </trkpt>
      <trkpt lat="56.868465119387" lon="14.789944608801">
        <ele>168.4</ele>
        <time>2020-02-12T12:09:50Z</time>
      </trkpt>
      <trkpt lat="56.868444499913" lon="14.78998995488">
        <ele>168.8</ele>
        <time>2020-02-12T12:09:51Z</time>
      </trkpt>
      <trkpt lat="56.868392615952" lon="14.790119622873">
        <ele>169.6</ele>
        <time>2020-02-12T12:09:55Z</time>
      </trkpt>
      <trkpt lat="56.868365542415" lon="14.790155665043">
        <ele>170</ele>
        <time>2020-02-12T12:09:56Z</time>
      </trkpt>
      <trkpt lat="56.868316927395" lon="14.790245854287">
        <ele>171</ele>
        <time>2020-02-12T12:09:58Z</time>
      </trkpt>
      <trkpt lat="56.868251548575" lon="14.790408295509">
        <ele>172</ele>
        <time>2020-02-12T12:10:01Z</time>
      </trkpt>
      <trkpt lat="56.868240568286" lon="14.790465460067">
        <ele>172.6</ele>
        <time>2020-02-12T12:10:02Z</time>
      </trkpt>
      <trkpt lat="56.868237969897" lon="14.790499825857">
        <ele>173.4</ele>
        <time>2020-02-12T12:10:04Z</time>
      </trkpt>
      <trkpt lat="56.86827040785" lon="14.790479206383">
        <ele>174.6</ele>
        <time>2020-02-12T12:10:06Z</time>
      </trkpt>
      <trkpt lat="56.868294463903" lon="14.790475015433">
        <ele>175.6</ele>
        <time>2020-02-12T12:10:09Z</time>
      </trkpt>
      <trkpt lat="56.86832824296" lon="14.79046101766">
        <ele>177.6</ele>
        <time>2020-02-12T12:10:12Z</time>
      </trkpt>
      <trkpt lat="56.868364788044" lon="14.790451629932">
        <ele>176.4</ele>
        <time>2020-02-12T12:10:15Z</time>
      </trkpt>
      <trkpt lat="56.868388257364" lon="14.790449953552">
        <ele>175.2</ele>
        <time>2020-02-12T12:10:17Z</time>
      </trkpt>
      <trkpt lat="56.868468975061" lon="14.790440565824">
        <ele>174</ele>
        <time>2020-02-12T12:10:23Z</time>
      </trkpt>
      <trkpt lat="56.868498311711" lon="14.790450456466">
        <ele>172.6</ele>
        <time>2020-02-12T12:10:25Z</time>
      </trkpt>
      <trkpt lat="56.868542316686" lon="14.790482391505">
        <ele>171.2</ele>
        <time>2020-02-12T12:10:28Z</time>
      </trkpt>
      <trkpt lat="56.86861658032" lon="14.790544249927">
        <ele>169.8</ele>
        <time>2020-02-12T12:10:32Z</time>
      </trkpt>
      <trkpt lat="56.868669134833" lon="14.790569395627">
        <ele>168.8</ele>
        <time>2020-02-12T12:10:35Z</time>
      </trkpt>
      <trkpt lat="56.868727724314" lon="14.790598229363">
        <ele>167.4</ele>
        <time>2020-02-12T12:10:38Z</time>
      </trkpt>
      <trkpt lat="56.868789079822" lon="14.790627146918">
        <ele>166</ele>
        <time>2020-02-12T12:10:41Z</time>
      </trkpt>
      <trkpt lat="56.868828223295" lon="14.790644832727">
        <ele>164.8</ele>
        <time>2020-02-12T12:10:43Z</time>
      </trkpt>
      <trkpt lat="56.868866109483" lon="14.790653717541">
        <ele>163.6</ele>
        <time>2020-02-12T12:10:45Z</time>
      </trkpt>
      <trkpt lat="56.86890240311" lon="14.79066302145">
        <ele>162.6</ele>
        <time>2020-02-12T12:10:47Z</time>
      </trkpt>
      <trkpt lat="56.868929141371" lon="14.790687915693">
        <ele>161.4</ele>
        <time>2020-02-12T12:10:49Z</time>
      </trkpt>
      <trkpt lat="56.868943222963" lon="14.79069738724">
        <ele>161</ele>
        <time>2020-02-12T12:10:50Z</time>
      </trkpt>
      <trkpt lat="56.868976750563" lon="14.790709540995">
        <ele>163</ele>
        <time>2020-02-12T12:10:52Z</time>
      </trkpt>
      <trkpt lat="56.868930985389" lon="14.790569479446">
        <ele>164.4</ele>
        <time>2020-02-12T12:11:03Z</time>
      </trkpt>
      <trkpt lat="56.868905420594" lon="14.790581884658">
        <ele>165</ele>
        <time>2020-02-12T12:11:04Z</time>
      </trkpt>
      <trkpt lat="56.868876335401" lon="14.790581549382">
        <ele>165.6</ele>
        <time>2020-02-12T12:11:05Z</time>
      </trkpt>
      <trkpt lat="56.868776758429" lon="14.790620357579">
        <ele>167</ele>
        <time>2020-02-12T12:11:07Z</time>
      </trkpt>
      <trkpt lat="56.868675421258" lon="14.790629158574">
        <ele>168.6</ele>
        <time>2020-02-12T12:11:10Z</time>
      </trkpt>
      <trkpt lat="56.868615658311" lon="14.790642485795">
        <ele>170</ele>
        <time>2020-02-12T12:11:12Z</time>
      </trkpt>
      <trkpt lat="56.868567881481" lon="14.79063200842">
        <ele>171.4</ele>
        <time>2020-02-12T12:11:14Z</time>
      </trkpt>
      <trkpt lat="56.868501329195" lon="14.790622955968">
        <ele>172.8</ele>
        <time>2020-02-12T12:11:17Z</time>
      </trkpt>
      <trkpt lat="56.868452714175" lon="14.790589931282">
        <ele>173.8</ele>
        <time>2020-02-12T12:11:20Z</time>
      </trkpt>
      <trkpt lat="56.868421114412" lon="14.790591523843">
        <ele>175.2</ele>
        <time>2020-02-12T12:11:22Z</time>
      </trkpt>
      <trkpt lat="56.868389766106" lon="14.79059009892">
        <ele>176.8</ele>
        <time>2020-02-12T12:11:24Z</time>
      </trkpt>
      <trkpt lat="56.868352969565" lon="14.790596217707">
        <ele>178</ele>
        <time>2020-02-12T12:11:26Z</time>
      </trkpt>
      <trkpt lat="56.868316089205" lon="14.790603258503">
        <ele>179.4</ele>
        <time>2020-02-12T12:11:28Z</time>
      </trkpt>
      <trkpt lat="56.868250039833" lon="14.79062446471">
        <ele>181.8</ele>
        <time>2020-02-12T12:11:33Z</time>
      </trkpt>
      <trkpt lat="56.868175608561" lon="14.790548273239">
        <ele>179.8</ele>
        <time>2020-02-12T12:11:40Z</time>
      </trkpt>
      <trkpt lat="56.868176446751" lon="14.790518768951">
        <ele>179.4</ele>
        <time>2020-02-12T12:11:41Z</time>
      </trkpt>
      <trkpt lat="56.868189857791" lon="14.790451127018">
        <ele>178.8</ele>
        <time>2020-02-12T12:11:44Z</time>
      </trkpt>
      <trkpt lat="56.868219026803" lon="14.790406116215">
        <ele>178.2</ele>
        <time>2020-02-12T12:11:47Z</time>
      </trkpt>
      <trkpt lat="56.868226905789" lon="14.79039144789">
        <ele>178</ele>
        <time>2020-02-12T12:11:48Z</time>
      </trkpt>
      <trkpt lat="56.868245178331" lon="14.790291284185">
        <ele>177.2</ele>
        <time>2020-02-12T12:11:51Z</time>
      </trkpt>
      <trkpt lat="56.86832908115" lon="14.79016178383">
        <ele>176</ele>
        <time>2020-02-12T12:11:58Z</time>
      </trkpt>
      <trkpt lat="56.868364033673" lon="14.790141248175">
        <ele>175</ele>
        <time>2020-02-12T12:12:01Z</time>
      </trkpt>
      <trkpt lat="56.868403763879" lon="14.790069080016">
        <ele>174</ele>
        <time>2020-02-12T12:12:04Z</time>
      </trkpt>
      <trkpt lat="56.86844056042" lon="14.790003282101">
        <ele>173</ele>
        <time>2020-02-12T12:12:07Z</time>
      </trkpt>
      <trkpt lat="56.868453720003" lon="14.789995235477">
        <ele>172.8</ele>
        <time>2020-02-12T12:12:08Z</time>
      </trkpt>
      <trkpt lat="56.868587578946" lon="14.789957600746">
        <ele>171.6</ele>
        <time>2020-02-12T12:12:15Z</time>
      </trkpt>
      <trkpt lat="56.868676007991" lon="14.789979980419">
        <ele>170.4</ele>
        <time>2020-02-12T12:12:18Z</time>
      </trkpt>
      <trkpt lat="56.868735519481" lon="14.790046029791">
        <ele>169</ele>
        <time>2020-02-12T12:12:21Z</time>
      </trkpt>
      <trkpt lat="56.868786062338" lon="14.79011568338">
        <ele>167.8</ele>
        <time>2020-02-12T12:12:24Z</time>
      </trkpt>
      <trkpt lat="56.868839790317" lon="14.790278962792">
        <ele>166.4</ele>
        <time>2020-02-12T12:12:28Z</time>
      </trkpt>
      <trkpt lat="56.868882873283" lon="14.790398572505">
        <ele>165.2</ele>
        <time>2020-02-12T12:12:31Z</time>
      </trkpt>
      <trkpt lat="56.868931320665" lon="14.790513404535">
        <ele>164</ele>
        <time>2020-02-12T12:12:34Z</time>
      </trkpt>
      <trkpt lat="56.869000136064" lon="14.790597139716">
        <ele>164.8</ele>
        <time>2020-02-12T12:12:41Z</time>
      </trkpt>
      <trkpt lat="56.868999046417" lon="14.790505693187">
        <ele>164.4</ele>
        <time>2020-02-12T12:12:43Z</time>
      </trkpt>
      <trkpt lat="56.86900633867" lon="14.790454479778">
        <ele>164.8</ele>
        <time>2020-02-12T12:12:45Z</time>
      </trkpt>
      <trkpt lat="56.86897951659" lon="14.790316681342">
        <ele>165.8</ele>
        <time>2020-02-12T12:12:49Z</time>
      </trkpt>
      <trkpt lat="56.868937187995" lon="14.790210817945">
        <ele>167</ele>
        <time>2020-02-12T12:12:52Z</time>
      </trkpt>
      <trkpt lat="56.868857559945" lon="14.790113084991">
        <ele>168.2</ele>
        <time>2020-02-12T12:12:55Z</time>
      </trkpt>
      <trkpt lat="56.868797377903" lon="14.79003270257">
        <ele>169.6</ele>
        <time>2020-02-12T12:12:59Z</time>
      </trkpt>
      <trkpt lat="56.868737866413" lon="14.789939747299">
        <ele>169.4</ele>
        <time>2020-02-12T12:13:02Z</time>
      </trkpt>
      <trkpt lat="56.868576263381" lon="14.789949637941">
        <ele>171</ele>
        <time>2020-02-12T12:13:08Z</time>
      </trkpt>
      <trkpt lat="56.868523122135" lon="14.789972520528">
        <ele>172.2</ele>
        <time>2020-02-12T12:13:10Z</time>
      </trkpt>
      <trkpt lat="56.868434609271" lon="14.790098165209">
        <ele>173.4</ele>
        <time>2020-02-12T12:13:14Z</time>
      </trkpt>
      <trkpt lat="56.868392280676" lon="14.79017016573">
        <ele>174.8</ele>
        <time>2020-02-12T12:13:16Z</time>
      </trkpt>
      <trkpt lat="56.868306366201" lon="14.790314166772">
        <ele>176</ele>
        <time>2020-02-12T12:13:19Z</time>
      </trkpt>
      <trkpt lat="56.868285830546" lon="14.790397063763">
        <ele>176.6</ele>
        <time>2020-02-12T12:13:21Z</time>
      </trkpt>
      <trkpt lat="56.868274850257" lon="14.790489097025">
        <ele>177.2</ele>
        <time>2020-02-12T12:13:23Z</time>
      </trkpt>
      <trkpt lat="56.868318017042" lon="14.790542154452">
        <ele>178.6</ele>
        <time>2020-02-12T12:13:27Z</time>
      </trkpt>
      <trkpt lat="56.868331008987" lon="14.790552212732">
        <ele>180</ele>
        <time>2020-02-12T12:13:29Z</time>
      </trkpt>
      <trkpt lat="56.868395801074" lon="14.790531090344">
        <ele>179</ele>
        <time>2020-02-12T12:13:36Z</time>
      </trkpt>
      <trkpt lat="56.868439051678" lon="14.790527737584">
        <ele>177.6</ele>
        <time>2020-02-12T12:13:40Z</time>
      </trkpt>
      <trkpt lat="56.86846235336" lon="14.790523546634">
        <ele>176.4</ele>
        <time>2020-02-12T12:13:42Z</time>
      </trkpt>
      <trkpt lat="56.868515829882" lon="14.790498484753">
        <ele>175</ele>
        <time>2020-02-12T12:13:45Z</time>
      </trkpt>
      <trkpt lat="56.868558326115" lon="14.790511141422">
        <ele>173.6</ele>
        <time>2020-02-12T12:13:48Z</time>
      </trkpt>
      <trkpt lat="56.868612976103" lon="14.79054567485">
        <ele>172.2</ele>
        <time>2020-02-12T12:13:51Z</time>
      </trkpt>
      <trkpt lat="56.868650862291" lon="14.790573838034">
        <ele>171</ele>
        <time>2020-02-12T12:13:53Z</time>
      </trkpt>
      <trkpt lat="56.868705177003" lon="14.79057836426">
        <ele>169.6</ele>
        <time>2020-02-12T12:13:56Z</time>
      </trkpt>
      <trkpt lat="56.868754462575" lon="14.790608371462">
        <ele>168.4</ele>
        <time>2020-02-12T12:13:59Z</time>
      </trkpt>
      <trkpt lat="56.868798719007" lon="14.790618178285">
        <ele>167</ele>
        <time>2020-02-12T12:14:02Z</time>
      </trkpt>
      <trkpt lat="56.868806346536" lon="14.790626727823">
        <ele>166.8</ele>
        <time>2020-02-12T12:14:03Z</time>
      </trkpt>
      <trkpt lat="56.868844484181" lon="14.790650951514">
        <ele>166</ele>
        <time>2020-02-12T12:14:06Z</time>
      </trkpt>
      <trkpt lat="56.868870635709" lon="14.790649107496">
        <ele>164.6</ele>
        <time>2020-02-12T12:14:08Z</time>
      </trkpt>
      <trkpt lat="56.868904414766" lon="14.7906755943">
        <ele>163.2</ele>
        <time>2020-02-12T12:14:11Z</time>
      </trkpt>
      <trkpt lat="56.868956717822" lon="14.790710211547">
        <ele>162.2</ele>
        <time>2020-02-12T12:14:14Z</time>
      </trkpt>
      <trkpt lat="56.868961160229" lon="14.790663608183">
        <ele>164.8</ele>
        <time>2020-02-12T12:14:17Z</time>
      </trkpt>
      <trkpt lat="56.868895529952" lon="14.790577945165">
        <ele>166</ele>
        <time>2020-02-12T12:14:21Z</time>
      </trkpt>
      <trkpt lat="56.868782206664" lon="14.790613400602">
        <ele>167.2</ele>
        <time>2020-02-12T12:14:27Z</time>
      </trkpt>
      <trkpt lat="56.868730993255" lon="14.790632176058">
        <ele>168.6</ele>
        <time>2020-02-12T12:14:29Z</time>
      </trkpt>
      <trkpt lat="56.868701572786" lon="14.79063284661">
        <ele>169.8</ele>
        <time>2020-02-12T12:14:30Z</time>
      </trkpt>
      <trkpt lat="56.868653125404" lon="14.790619938484">
        <ele>171.4</ele>
        <time>2020-02-12T12:14:32Z</time>
      </trkpt>
      <trkpt lat="56.868564277264" lon="14.79059093711">
        <ele>173</ele>
        <time>2020-02-12T12:14:36Z</time>
      </trkpt>
      <trkpt lat="56.868547597283" lon="14.790574592405">
        <ele>174</ele>
        <time>2020-02-12T12:14:37Z</time>
      </trkpt>
      <trkpt lat="56.868529073284" lon="14.790565120858">
        <ele>175</ele>
        <time>2020-02-12T12:14:38Z</time>
      </trkpt>
      <trkpt lat="56.868490348906" lon="14.790547183592">
        <ele>176.6</ele>
        <time>2020-02-12T12:14:40Z</time>
      </trkpt>
      <trkpt lat="56.868435363642" lon="14.790554643483">
        <ele>177.8</ele>
        <time>2020-02-12T12:14:43Z</time>
      </trkpt>
      <trkpt lat="56.868393537961" lon="14.790567803066">
        <ele>179</ele>
        <time>2020-02-12T12:14:45Z</time>
      </trkpt>
      <trkpt lat="56.868344922941" lon="14.790606443625">
        <ele>180</ele>
        <time>2020-02-12T12:14:47Z</time>
      </trkpt>
      <trkpt lat="56.86830477364" lon="14.790627985108">
        <ele>181.2</ele>
        <time>2020-02-12T12:14:49Z</time>
      </trkpt>
      <trkpt lat="56.868282226329" lon="14.790617507733">
        <ele>182</ele>
        <time>2020-02-12T12:14:51Z</time>
      </trkpt>
      <trkpt lat="56.868274347343" lon="14.790602336494">
        <ele>182.2</ele>
        <time>2020-02-12T12:14:52Z</time>
      </trkpt>
      <trkpt lat="56.868252470584" lon="14.790591607662">
        <ele>182.4</ele>
        <time>2020-02-12T12:14:54Z</time>
      </trkpt>
      <trkpt lat="56.868201089537" lon="14.790549614343">
        <ele>181.2</ele>
        <time>2020-02-12T12:14:58Z</time>
      </trkpt>
      <trkpt lat="56.86819413256" lon="14.790528575774">
        <ele>180.8</ele>
        <time>2020-02-12T12:14:59Z</time>
      </trkpt>
      <trkpt lat="56.868195306026" lon="14.790479122564">
        <ele>180</ele>
        <time>2020-02-12T12:15:02Z</time>
      </trkpt>
      <trkpt lat="56.868197150044" lon="14.790434111761">
        <ele>179.2</ele>
        <time>2020-02-12T12:15:05Z</time>
      </trkpt>
      <trkpt lat="56.868208046514" lon="14.790391783166">
        <ele>178.8</ele>
        <time>2020-02-12T12:15:07Z</time>
      </trkpt>
      <trkpt lat="56.868216931328" lon="14.79031433441">
        <ele>177.8</ele>
        <time>2020-02-12T12:15:10Z</time>
      </trkpt>
      <trkpt lat="56.868238221354" lon="14.790184834055">
        <ele>177</ele>
        <time>2020-02-12T12:15:14Z</time>
      </trkpt>
      <trkpt lat="56.868264205244" lon="14.790135297026">
        <ele>176.8</ele>
        <time>2020-02-12T12:15:17Z</time>
      </trkpt>
      <trkpt lat="56.868313239359" lon="14.790087101101">
        <ele>175.6</ele>
        <time>2020-02-12T12:15:21Z</time>
      </trkpt>
      <trkpt lat="56.86836596151" lon="14.790025075041">
        <ele>174.4</ele>
        <time>2020-02-12T12:15:24Z</time>
      </trkpt>
      <trkpt lat="56.868422204059" lon="14.790005712852">
        <ele>173</ele>
        <time>2020-02-12T12:15:27Z</time>
      </trkpt>
      <trkpt lat="56.868492360562" lon="14.789957349289">
        <ele>172.6</ele>
        <time>2020-02-12T12:15:30Z</time>
      </trkpt>
      <trkpt lat="56.868606857316" lon="14.789951733416">
        <ele>172</ele>
        <time>2020-02-12T12:15:35Z</time>
      </trkpt>
      <trkpt lat="56.868631248645" lon="14.789952906882">
        <ele>171.8</ele>
        <time>2020-02-12T12:15:36Z</time>
      </trkpt>
      <trkpt lat="56.868696711284" lon="14.790002443911">
        <ele>170.4</ele>
        <time>2020-02-12T12:15:39Z</time>
      </trkpt>
      <trkpt lat="56.868742392639" lon="14.790034127493">
        <ele>168.4</ele>
        <time>2020-02-12T12:15:41Z</time>
      </trkpt>
      <trkpt lat="56.86881271678" lon="14.790126663669">
        <ele>166.8</ele>
        <time>2020-02-12T12:15:45Z</time>
      </trkpt>
      <trkpt lat="56.868898966531" lon="14.790405613301">
        <ele>165.6</ele>
        <time>2020-02-12T12:15:53Z</time>
      </trkpt>
      <trkpt lat="56.868951437225" lon="14.79051298544">
        <ele>164.6</ele>
        <time>2020-02-12T12:15:56Z</time>
      </trkpt>
      <trkpt lat="56.869004913747" lon="14.790576604061">
        <ele>166.8</ele>
        <time>2020-02-12T12:16:03Z</time>
      </trkpt>
      <trkpt lat="56.86898789849" lon="14.790534275466">
        <ele>165.6</ele>
        <time>2020-02-12T12:16:04Z</time>
      </trkpt>
      <trkpt lat="56.86889150664" lon="14.790212661963">
        <ele>167</ele>
        <time>2020-02-12T12:16:13Z</time>
      </trkpt>
      <trkpt lat="56.868839119765" lon="14.790111743887">
        <ele>168.6</ele>
        <time>2020-02-12T12:16:16Z</time>
      </trkpt>
      <trkpt lat="56.868824535259" lon="14.790075953174">
        <ele>169.2</ele>
        <time>2020-02-12T12:16:17Z</time>
      </trkpt>
      <trkpt lat="56.868797377903" lon="14.790050388379">
        <ele>168</ele>
        <time>2020-02-12T12:16:19Z</time>
      </trkpt>
      <trkpt lat="56.86877080728" lon="14.790024907403">
        <ele>168.2</ele>
        <time>2020-02-12T12:16:21Z</time>
      </trkpt>
      <trkpt lat="56.868765023769" lon="14.790012502191">
        <ele>170.4</ele>
        <time>2020-02-12T12:16:22Z</time>
      </trkpt>
      <trkpt lat="56.868751361272" lon="14.789997833866">
        <ele>170.2</ele>
        <time>2020-02-12T12:16:23Z</time>
      </trkpt>
      <trkpt lat="56.868734513653" lon="14.789986266844">
        <ele>171.6</ele>
        <time>2020-02-12T12:16:24Z</time>
      </trkpt>
      <trkpt lat="56.868557487925" lon="14.789891299917">
        <ele>172</ele>
        <time>2020-02-12T12:16:33Z</time>
      </trkpt>
      <trkpt lat="56.868542651962" lon="14.789908063717">
        <ele>172.2</ele>
        <time>2020-02-12T12:16:34Z</time>
      </trkpt>
      <trkpt lat="56.868461012256" lon="14.790056423347">
        <ele>172.8</ele>
        <time>2020-02-12T12:16:39Z</time>
      </trkpt>
      <trkpt lat="56.868386832441" lon="14.790206626995">
        <ele>174.6</ele>
        <time>2020-02-12T12:16:43Z</time>
      </trkpt>
      <trkpt lat="56.868346766959" lon="14.790339731567">
        <ele>175.4</ele>
        <time>2020-02-12T12:16:46Z</time>
      </trkpt>
      <trkpt lat="56.868342240733" lon="14.79042246092">
        <ele>176.4</ele>
        <time>2020-02-12T12:16:50Z</time>
      </trkpt>
      <trkpt lat="56.868351544642" lon="14.790435369046">
        <ele>177</ele>
        <time>2020-02-12T12:16:51Z</time>
      </trkpt>
      <trkpt lat="56.868394292332" lon="14.790436961607">
        <ele>177.2</ele>
        <time>2020-02-12T12:17:00Z</time>
      </trkpt>
      <trkpt lat="56.868434190176" lon="14.79043754834">
        <ele>176</ele>
        <time>2020-02-12T12:17:03Z</time>
      </trkpt>
      <trkpt lat="56.868451373071" lon="14.79044760662">
        <ele>175.8</ele>
        <time>2020-02-12T12:17:04Z</time>
      </trkpt>
      <trkpt lat="56.868485655042" lon="14.790448360991">
        <ele>174.6</ele>
        <time>2020-02-12T12:17:06Z</time>
      </trkpt>
      <trkpt lat="56.868502083566" lon="14.790445762602">
        <ele>174</ele>
        <time>2020-02-12T12:17:07Z</time>
      </trkpt>
      <trkpt lat="56.86851935028" lon="14.790453641588">
        <ele>173.4</ele>
        <time>2020-02-12T12:17:08Z</time>
      </trkpt>
      <trkpt lat="56.868536365537" lon="14.790463029316">
        <ele>172.2</ele>
        <time>2020-02-12T12:17:09Z</time>
      </trkpt>
      <trkpt lat="56.868611215904" lon="14.790503262436">
        <ele>171.2</ele>
        <time>2020-02-12T12:17:14Z</time>
      </trkpt>
      <trkpt lat="56.868693023248" lon="14.790557744786">
        <ele>170</ele>
        <time>2020-02-12T12:17:20Z</time>
      </trkpt>
      <trkpt lat="56.86871716312" lon="14.790579621545">
        <ele>169</ele>
        <time>2020-02-12T12:17:22Z</time>
      </trkpt>
      <trkpt lat="56.86874147063" lon="14.790598397001">
        <ele>167.8</ele>
        <time>2020-02-12T12:17:24Z</time>
      </trkpt>
      <trkpt lat="56.868752450919" lon="14.790611724222">
        <ele>167.4</ele>
        <time>2020-02-12T12:17:25Z</time>
      </trkpt>
      <trkpt lat="56.868780530284" lon="14.790622453054">
        <ele>166.6</ele>
        <time>2020-02-12T12:17:27Z</time>
      </trkpt>
      <trkpt lat="56.868802490862" lon="14.79063703756">
        <ele>165.4</ele>
        <time>2020-02-12T12:17:29Z</time>
      </trkpt>
      <trkpt lat="56.86883031877" lon="14.790650867695">
        <ele>164.2</ele>
        <time>2020-02-12T12:17:31Z</time>
      </trkpt>
      <trkpt lat="56.86887893379" lon="14.790666877124">
        <ele>163.2</ele>
        <time>2020-02-12T12:17:34Z</time>
      </trkpt>
      <trkpt lat="56.868929392828" lon="14.790698309249">
        <ele>162</ele>
        <time>2020-02-12T12:17:37Z</time>
      </trkpt>
      <trkpt lat="56.868956214908" lon="14.790729573736">
        <ele>161</ele>
        <time>2020-02-12T12:17:39Z</time>
      </trkpt>
      <trkpt lat="56.868951269587" lon="14.790688586245">
        <ele>162.2</ele>
        <time>2020-02-12T12:17:41Z</time>
      </trkpt>
      <trkpt lat="56.868893853572" lon="14.790612394774">
        <ele>164.4</ele>
        <time>2020-02-12T12:17:44Z</time>
      </trkpt>
      <trkpt lat="56.868768208891" lon="14.790587500531">
        <ele>165.8</ele>
        <time>2020-02-12T12:17:50Z</time>
      </trkpt>
      <trkpt lat="56.868703416804" lon="14.790603090865">
        <ele>167.4</ele>
        <time>2020-02-12T12:17:53Z</time>
      </trkpt>
      <trkpt lat="56.868648180083" lon="14.79060518634">
        <ele>168.6</ele>
        <time>2020-02-12T12:17:55Z</time>
      </trkpt>
      <trkpt lat="56.868584477643" lon="14.790596385345">
        <ele>170</ele>
        <time>2020-02-12T12:17:58Z</time>
      </trkpt>
      <trkpt lat="56.868553296975" lon="14.790605353978">
        <ele>171</ele>
        <time>2020-02-12T12:17:59Z</time>
      </trkpt>
      <trkpt lat="56.868501329195" lon="14.790597558811">
        <ele>172.6</ele>
        <time>2020-02-12T12:18:01Z</time>
      </trkpt>
      <trkpt lat="56.868431005054" lon="14.790580795011">
        <ele>173.8</ele>
        <time>2020-02-12T12:18:04Z</time>
      </trkpt>
      <trkpt lat="56.868385575156" lon="14.790567383971">
        <ele>175.2</ele>
        <time>2020-02-12T12:18:07Z</time>
      </trkpt>
      <trkpt lat="56.868369062813" lon="14.79056998236">
        <ele>176.4</ele>
        <time>2020-02-12T12:18:09Z</time>
      </trkpt>
      <trkpt lat="56.868341067267" lon="14.790568892713">
        <ele>177.8</ele>
        <time>2020-02-12T12:18:11Z</time>
      </trkpt>
      <trkpt lat="56.868311060065" lon="14.790585656513">
        <ele>179.6</ele>
        <time>2020-02-12T12:18:13Z</time>
      </trkpt>
      <trkpt lat="56.868283315976" lon="14.790602839408">
        <ele>180.8</ele>
        <time>2020-02-12T12:18:15Z</time>
      </trkpt>
      <trkpt lat="56.868274095886" lon="14.790604934883">
        <ele>182.2</ele>
        <time>2020-02-12T12:18:16Z</time>
      </trkpt>
      <trkpt lat="56.868266635995" lon="14.790603929055">
        <ele>181.8</ele>
        <time>2020-02-12T12:18:17Z</time>
      </trkpt>
      <trkpt lat="56.86826118776" lon="14.790598061725">
        <ele>181.2</ele>
        <time>2020-02-12T12:18:18Z</time>
      </trkpt>
      <trkpt lat="56.868249285462" lon="14.790589009273">
        <ele>179</ele>
        <time>2020-02-12T12:18:20Z</time>
      </trkpt>
      <trkpt lat="56.868230929101" lon="14.79057752607">
        <ele>179</ele>
        <time>2020-02-12T12:18:22Z</time>
      </trkpt>
      <trkpt lat="56.868211818369" lon="14.790554392026">
        <ele>178.8</ele>
        <time>2020-02-12T12:18:24Z</time>
      </trkpt>
      <trkpt lat="56.868203268831" lon="14.790533604914">
        <ele>178</ele>
        <time>2020-02-12T12:18:26Z</time>
      </trkpt>
      <trkpt lat="56.868203268831" lon="14.790519271865">
        <ele>177.8</ele>
        <time>2020-02-12T12:18:27Z</time>
      </trkpt>
      <trkpt lat="56.868210812541" lon="14.790465627705">
        <ele>176.8</ele>
        <time>2020-02-12T12:18:32Z</time>
      </trkpt>
      <trkpt lat="56.868232018748" lon="14.790374264995">
        <ele>175.8</ele>
        <time>2020-02-12T12:18:36Z</time>
      </trkpt>
      <trkpt lat="56.868234617137" lon="14.79032187812">
        <ele>175.6</ele>
        <time>2020-02-12T12:18:37Z</time>
      </trkpt>
      <trkpt lat="56.868255236611" lon="14.790180559286">
        <ele>174.8</ele>
        <time>2020-02-12T12:18:41Z</time>
      </trkpt>
      <trkpt lat="56.868309216047" lon="14.79006790655">
        <ele>173.4</ele>
        <time>2020-02-12T12:18:46Z</time>
      </trkpt>
      <trkpt lat="56.868518679728" lon="14.789936645996">
        <ele>173</ele>
        <time>2020-02-12T12:18:56Z</time>
      </trkpt>
      <trkpt lat="56.868653125404" lon="14.790025661774">
        <ele>172.4</ele>
        <time>2020-02-12T12:19:03Z</time>
      </trkpt>
      <trkpt lat="56.868700231682" lon="14.790060698116">
        <ele>171.4</ele>
        <time>2020-02-12T12:19:06Z</time>
      </trkpt>
      <trkpt lat="56.868763850303" lon="14.790157760518">
        <ele>170.2</ele>
        <time>2020-02-12T12:19:10Z</time>
      </trkpt>
      <trkpt lat="56.86880349669" lon="14.790287344692">
        <ele>169</ele>
        <time>2020-02-12T12:19:14Z</time>
      </trkpt>
      <trkpt lat="56.868843562172" lon="14.790434782313">
        <ele>167.6</ele>
        <time>2020-02-12T12:19:18Z</time>
      </trkpt>
      <trkpt lat="56.868868288777" lon="14.790495970183">
        <ele>166.4</ele>
        <time>2020-02-12T12:19:20Z</time>
      </trkpt>
      <trkpt lat="56.868889243527" lon="14.790567635428">
        <ele>165.2</ele>
        <time>2020-02-12T12:19:25Z</time>
      </trkpt>
      <trkpt lat="56.868867282949" lon="14.790451462294">
        <ele>165</ele>
        <time>2020-02-12T12:19:28Z</time>
      </trkpt>
      <trkpt lat="56.868845825285" lon="14.790335875893">
        <ele>166.6</ele>
        <time>2020-02-12T12:19:32Z</time>
      </trkpt>
      <trkpt lat="56.868833922987" lon="14.790301510103">
        <ele>167.2</ele>
        <time>2020-02-12T12:19:33Z</time>
      </trkpt>
      <trkpt lat="56.868819841395" lon="14.79025985206">
        <ele>167.8</ele>
        <time>2020-02-12T12:19:34Z</time>
      </trkpt>
      <trkpt lat="56.868776842248" lon="14.790125490203">
        <ele>168.8</ele>
        <time>2020-02-12T12:19:38Z</time>
      </trkpt>
      <trkpt lat="56.868709703229" lon="14.790012502191">
        <ele>170.2</ele>
        <time>2020-02-12T12:19:41Z</time>
      </trkpt>
      <trkpt lat="56.868667458453" lon="14.78995726547">
        <ele>171.4</ele>
        <time>2020-02-12T12:19:44Z</time>
      </trkpt>
      <trkpt lat="56.868647928626" lon="14.789942345688">
        <ele>172.4</ele>
        <time>2020-02-12T12:19:46Z</time>
      </trkpt>
      <trkpt lat="56.868619346347" lon="14.789933544693">
        <ele>172.6</ele>
        <time>2020-02-12T12:19:47Z</time>
      </trkpt>
      <trkpt lat="56.868502754118" lon="14.789926922992">
        <ele>173.6</ele>
        <time>2020-02-12T12:19:53Z</time>
      </trkpt>
      <trkpt lat="56.868471070536" lon="14.789913763409">
        <ele>174.6</ele>
        <time>2020-02-12T12:19:55Z</time>
      </trkpt>
      <trkpt lat="56.868383312043" lon="14.789986685939">
        <ele>176</ele>
        <time>2020-02-12T12:19:58Z</time>
      </trkpt>
      <trkpt lat="56.868327572408" lon="14.790083999798">
        <ele>177</ele>
        <time>2020-02-12T12:20:01Z</time>
      </trkpt>
      <trkpt lat="56.868297732844" lon="14.790140074709">
        <ele>178.4</ele>
        <time>2020-02-12T12:20:03Z</time>
      </trkpt>
      <trkpt lat="56.868284237985" lon="14.790173434671">
        <ele>179.6</ele>
        <time>2020-02-12T12:20:04Z</time>
      </trkpt>
      <trkpt lat="56.86827627518" lon="14.790211572316">
        <ele>180.6</ele>
        <time>2020-02-12T12:20:05Z</time>
      </trkpt>
      <trkpt lat="56.868240903562" lon="14.790309808184">
        <ele>181.6</ele>
        <time>2020-02-12T12:20:07Z</time>
      </trkpt>
      <trkpt lat="56.868245848883" lon="14.790332858409">
        <ele>181.8</ele>
        <time>2020-02-12T12:20:08Z</time>
      </trkpt>
      <trkpt lat="56.868254230783" lon="14.790375689918">
        <ele>182</ele>
        <time>2020-02-12T12:20:09Z</time>
      </trkpt>
      <trkpt lat="56.868315418653" lon="14.790432938295">
        <ele>183.2</ele>
        <time>2020-02-12T12:20:15Z</time>
      </trkpt>
      <trkpt lat="56.868406949001" lon="14.79042246092">
        <ele>182.4</ele>
        <time>2020-02-12T12:20:23Z</time>
      </trkpt>
      <trkpt lat="56.868408960657" lon="14.790423131472">
        <ele>182.2</ele>
        <time>2020-02-12T12:20:24Z</time>
      </trkpt>
      <trkpt lat="56.868436285651" lon="14.790411648269">
        <ele>181.4</ele>
        <time>2020-02-12T12:20:26Z</time>
      </trkpt>
      <trkpt lat="56.86845145689" lon="14.790415839219">
        <ele>180.8</ele>
        <time>2020-02-12T12:20:27Z</time>
      </trkpt>
      <trkpt lat="56.868465957577" lon="14.790418018513">
        <ele>180.2</ele>
        <time>2020-02-12T12:20:28Z</time>
      </trkpt>
      <trkpt lat="56.868489594535" lon="14.790428244431">
        <ele>179.6</ele>
        <time>2020-02-12T12:20:30Z</time>
      </trkpt>
      <trkpt lat="56.868526726352" lon="14.79049705983">
        <ele>178.2</ele>
        <time>2020-02-12T12:20:34Z</time>
      </trkpt>
      <trkpt lat="56.868551872052" lon="14.790514158906">
        <ele>177.2</ele>
        <time>2020-02-12T12:20:36Z</time>
      </trkpt>
      <trkpt lat="56.868561678875" lon="14.790525642109">
        <ele>176.6</ele>
        <time>2020-02-12T12:20:37Z</time>
      </trkpt>
      <trkpt lat="56.86859814014" lon="14.790540980986">
        <ele>176</ele>
        <time>2020-02-12T12:20:39Z</time>
      </trkpt>
      <trkpt lat="56.868638121803" lon="14.790577861346">
        <ele>175</ele>
        <time>2020-02-12T12:20:42Z</time>
      </trkpt>
      <trkpt lat="56.86868782647" lon="14.790593535499">
        <ele>173.4</ele>
        <time>2020-02-12T12:20:45Z</time>
      </trkpt>
      <trkpt lat="56.868718252767" lon="14.790608287643">
        <ele>172.4</ele>
        <time>2020-02-12T12:20:47Z</time>
      </trkpt>
      <trkpt lat="56.868760078448" lon="14.790632930429">
        <ele>171.2</ele>
        <time>2020-02-12T12:20:50Z</time>
      </trkpt>
      <trkpt lat="56.868805675984" lon="14.790645838555">
        <ele>169.8</ele>
        <time>2020-02-12T12:20:53Z</time>
      </trkpt>
      <trkpt lat="56.868849010407" lon="14.790650700057">
        <ele>168.6</ele>
        <time>2020-02-12T12:20:56Z</time>
      </trkpt>
      <trkpt lat="56.8688780956" lon="14.79066805059">
        <ele>167.8</ele>
        <time>2020-02-12T12:20:58Z</time>
      </trkpt>
      <trkpt lat="56.868896451961" lon="14.790689508254">
        <ele>167.6</ele>
        <time>2020-02-12T12:20:59Z</time>
      </trkpt>
      <trkpt lat="56.868954622347" lon="14.790742314224">
        <ele>166.2</ele>
        <time>2020-02-12T12:21:02Z</time>
      </trkpt>
      <trkpt lat="56.868977924029" lon="14.790742062767">
        <ele>164.8</ele>
        <time>2020-02-12T12:21:04Z</time>
      </trkpt>
      <trkpt lat="56.8689451508" lon="14.790679617612">
        <ele>162.2</ele>
        <time>2020-02-12T12:21:07Z</time>
      </trkpt>
      <trkpt lat="56.868926878258" lon="14.79064877222">
        <ele>161.2</ele>
        <time>2020-02-12T12:21:08Z</time>
      </trkpt>
      <trkpt lat="56.868907935164" lon="14.790623710339">
        <ele>159.8</ele>
        <time>2020-02-12T12:21:09Z</time>
      </trkpt>
      <trkpt lat="56.868890081717" lon="14.79059931901">
        <ele>161.6</ele>
        <time>2020-02-12T12:21:10Z</time>
      </trkpt>
      <trkpt lat="56.868765442864" lon="14.790614238792">
        <ele>163</ele>
        <time>2020-02-12T12:21:16Z</time>
      </trkpt>
      <trkpt lat="56.868708362125" lon="14.790646928202">
        <ele>164</ele>
        <time>2020-02-12T12:21:18Z</time>
      </trkpt>
      <trkpt lat="56.868644994961" lon="14.790689675892">
        <ele>165.2</ele>
        <time>2020-02-12T12:21:20Z</time>
      </trkpt>
      <trkpt lat="56.868552961699" lon="14.790712642298">
        <ele>166.6</ele>
        <time>2020-02-12T12:21:23Z</time>
      </trkpt>
      <trkpt lat="56.868501161557" lon="14.790697973973">
        <ele>168.6</ele>
        <time>2020-02-12T12:21:25Z</time>
      </trkpt>
      <trkpt lat="56.868460760799" lon="14.790672828273">
        <ele>170</ele>
        <time>2020-02-12T12:21:27Z</time>
      </trkpt>
      <trkpt lat="56.868389011735" lon="14.79064374308">
        <ele>171.6</ele>
        <time>2020-02-12T12:21:31Z</time>
      </trkpt>
      <trkpt lat="56.868353137203" lon="14.790641060872">
        <ele>173.2</ele>
        <time>2020-02-12T12:21:33Z</time>
      </trkpt>
      <trkpt lat="56.868313826092" lon="14.790644329813">
        <ele>174.6</ele>
        <time>2020-02-12T12:21:35Z</time>
      </trkpt>
      <trkpt lat="56.868258421733" lon="14.790672660635">
        <ele>176.2</ele>
        <time>2020-02-12T12:21:38Z</time>
      </trkpt>
      <trkpt lat="56.868239897734" lon="14.790660674518">
        <ele>176.8</ele>
        <time>2020-02-12T12:21:40Z</time>
      </trkpt>
      <trkpt lat="56.86822346921" lon="14.79064625765">
        <ele>177.2</ele>
        <time>2020-02-12T12:21:42Z</time>
      </trkpt>
      <trkpt lat="56.868197904415" lon="14.790623542701">
        <ele>177.2</ele>
        <time>2020-02-12T12:21:45Z</time>
      </trkpt>
      <trkpt lat="56.868164712091" lon="14.790578615717">
        <ele>176</ele>
        <time>2020-02-12T12:21:49Z</time>
      </trkpt>
      <trkpt lat="56.868149959947" lon="14.790519355684">
        <ele>175</ele>
        <time>2020-02-12T12:21:52Z</time>
      </trkpt>
      <trkpt lat="56.868150630499" lon="14.79050292716">
        <ele>174.6</ele>
        <time>2020-02-12T12:21:53Z</time>
      </trkpt>
      <trkpt lat="56.868158593304" lon="14.790458000176">
        <ele>173.8</ele>
        <time>2020-02-12T12:21:55Z</time>
      </trkpt>
      <trkpt lat="56.868167561937" lon="14.790395471202">
        <ele>172.8</ele>
        <time>2020-02-12T12:21:57Z</time>
      </trkpt>
      <trkpt lat="56.868187846135" lon="14.790272508729">
        <ele>171.6</ele>
        <time>2020-02-12T12:22:01Z</time>
      </trkpt>
      <trkpt lat="56.868285243813" lon="14.790011580182">
        <ele>170.8</ele>
        <time>2020-02-12T12:22:10Z</time>
      </trkpt>
      <trkpt lat="56.868319190508" lon="14.790000683712">
        <ele>170.4</ele>
        <time>2020-02-12T12:22:12Z</time>
      </trkpt>
      <trkpt lat="56.86837853436" lon="14.789961624058">
        <ele>169.2</ele>
        <time>2020-02-12T12:22:15Z</time>
      </trkpt>
      <trkpt lat="56.868438632583" lon="14.789913595771">
        <ele>167.8</ele>
        <time>2020-02-12T12:22:18Z</time>
      </trkpt>
      <trkpt lat="56.868529576198" lon="14.789900352369">
        <ele>166.6</ele>
        <time>2020-02-12T12:22:22Z</time>
      </trkpt>
      <trkpt lat="56.86857299444" lon="14.789936143082">
        <ele>166.2</ele>
        <time>2020-02-12T12:22:25Z</time>
      </trkpt>
      <trkpt lat="56.868652203395" lon="14.789978136401">
        <ele>165.6</ele>
        <time>2020-02-12T12:22:29Z</time>
      </trkpt>
      <trkpt lat="56.868714564731" lon="14.790077881011">
        <ele>164.6</ele>
        <time>2020-02-12T12:22:33Z</time>
      </trkpt>
      <trkpt lat="56.868776087877" lon="14.790192042489">
        <ele>163.2</ele>
        <time>2020-02-12T12:22:37Z</time>
      </trkpt>
      <trkpt lat="56.868802155586" lon="14.790268988331">
        <ele>162.2</ele>
        <time>2020-02-12T12:22:39Z</time>
      </trkpt>
      <trkpt lat="56.868842723982" lon="14.790423047653">
        <ele>161</ele>
        <time>2020-02-12T12:22:43Z</time>
      </trkpt>
      <trkpt lat="56.868898882712" lon="14.790531677077">
        <ele>159.8</ele>
        <time>2020-02-12T12:22:46Z</time>
      </trkpt>
      <trkpt lat="56.868969709767" lon="14.790650364781">
        <ele>158.4</ele>
        <time>2020-02-12T12:22:49Z</time>
      </trkpt>
      <trkpt lat="56.8690038241" lon="14.790700488543">
        <ele>158</ele>
        <time>2020-02-12T12:22:51Z</time>
      </trkpt>
      <trkpt lat="56.868973230165" lon="14.790416677409">
        <ele>159.8</ele>
        <time>2020-02-12T12:22:59Z</time>
      </trkpt>
      <trkpt lat="56.868964764446" lon="14.790329338011">
        <ele>161.4</ele>
        <time>2020-02-12T12:23:02Z</time>
      </trkpt>
      <trkpt lat="56.868950096121" lon="14.790284662484">
        <ele>162</ele>
        <time>2020-02-12T12:23:03Z</time>
      </trkpt>
      <trkpt lat="56.868909192449" lon="14.790202938959">
        <ele>162.8</ele>
        <time>2020-02-12T12:23:05Z</time>
      </trkpt>
      <trkpt lat="56.86877248366" lon="14.790044353411">
        <ele>164.2</ele>
        <time>2020-02-12T12:23:10Z</time>
      </trkpt>
      <trkpt lat="56.868723365726" lon="14.790002192454">
        <ele>165.6</ele>
        <time>2020-02-12T12:23:12Z</time>
      </trkpt>
      <trkpt lat="56.868663267503" lon="14.789950476131">
        <ele>166.6</ele>
        <time>2020-02-12T12:23:14Z</time>
      </trkpt>
      <trkpt lat="56.868614820121" lon="14.789937735643">
        <ele>167</ele>
        <time>2020-02-12T12:23:16Z</time>
      </trkpt>
      <trkpt lat="56.868504765774" lon="14.789907896079">
        <ele>168</ele>
        <time>2020-02-12T12:23:21Z</time>
      </trkpt>
      <trkpt lat="56.868468639785" lon="14.789905800604">
        <ele>169.4</ele>
        <time>2020-02-12T12:23:23Z</time>
      </trkpt>
      <trkpt lat="56.868425975914" lon="14.789951062864">
        <ele>170.4</ele>
        <time>2020-02-12T12:23:26Z</time>
      </trkpt>
      <trkpt lat="56.868416169091" lon="14.789988362319">
        <ele>170.6</ele>
        <time>2020-02-12T12:23:27Z</time>
      </trkpt>
      <trkpt lat="56.868377779989" lon="14.790074192975">
        <ele>171.8</ele>
        <time>2020-02-12T12:23:31Z</time>
      </trkpt>
      <trkpt lat="56.868369733365" lon="14.790103529625">
        <ele>172.4</ele>
        <time>2020-02-12T12:23:32Z</time>
      </trkpt>
      <trkpt lat="56.86836009418" lon="14.790137560139">
        <ele>173</ele>
        <time>2020-02-12T12:23:33Z</time>
      </trkpt>
      <trkpt lat="56.868348527158" lon="14.790228503754">
        <ele>174</ele>
        <time>2020-02-12T12:23:35Z</time>
      </trkpt>
      <trkpt lat="56.868340061439" lon="14.790288769615">
        <ele>174.6</ele>
        <time>2020-02-12T12:23:36Z</time>
      </trkpt>
      <trkpt lat="56.868347772787" lon="14.790319866464">
        <ele>175.4</ele>
        <time>2020-02-12T12:23:37Z</time>
      </trkpt>
      <trkpt lat="56.868358166343" lon="14.790393040451">
        <ele>176.4</ele>
        <time>2020-02-12T12:23:39Z</time>
      </trkpt>
      <trkpt lat="56.868386497165" lon="14.790416258314">
        <ele>176.8</ele>
        <time>2020-02-12T12:23:41Z</time>
      </trkpt>
      <trkpt lat="56.868422706973" lon="14.790458754547">
        <ele>175.2</ele>
        <time>2020-02-12T12:23:53Z</time>
      </trkpt>
      <trkpt lat="56.868461179894" lon="14.790462023488">
        <ele>173.8</ele>
        <time>2020-02-12T12:23:56Z</time>
      </trkpt>
      <trkpt lat="56.868489007802" lon="14.790474680157">
        <ele>172.4</ele>
        <time>2020-02-12T12:23:58Z</time>
      </trkpt>
      <trkpt lat="56.86851013019" lon="14.790499239124">
        <ele>171.4</ele>
        <time>2020-02-12T12:24:00Z</time>
      </trkpt>
      <trkpt lat="56.868564444902" lon="14.790531844715">
        <ele>170.4</ele>
        <time>2020-02-12T12:24:04Z</time>
      </trkpt>
      <trkpt lat="56.868579616141" lon="14.790542741185">
        <ele>170</ele>
        <time>2020-02-12T12:24:05Z</time>
      </trkpt>
      <trkpt lat="56.868606773497" lon="14.790569898541">
        <ele>168.8</ele>
        <time>2020-02-12T12:24:07Z</time>
      </trkpt>
      <trkpt lat="56.868627392971" lon="14.790584147771">
        <ele>167.8</ele>
        <time>2020-02-12T12:24:09Z</time>
      </trkpt>
      <trkpt lat="56.868671146489" lon="14.790601582123">
        <ele>166.6</ele>
        <time>2020-02-12T12:24:12Z</time>
      </trkpt>
      <trkpt lat="56.868699058216" lon="14.79062446471">
        <ele>165.6</ele>
        <time>2020-02-12T12:24:14Z</time>
      </trkpt>
      <trkpt lat="56.868734262196" lon="14.79064625765">
        <ele>164.2</ele>
        <time>2020-02-12T12:24:17Z</time>
      </trkpt>
      <trkpt lat="56.868767957434" lon="14.790646844383">
        <ele>163.2</ele>
        <time>2020-02-12T12:24:19Z</time>
      </trkpt>
      <trkpt lat="56.868804418699" lon="14.790656399749">
        <ele>162.2</ele>
        <time>2020-02-12T12:24:21Z</time>
      </trkpt>
      <trkpt lat="56.868824619078" lon="14.790659752509">
        <ele>161.8</ele>
        <time>2020-02-12T12:24:22Z</time>
      </trkpt>
      <trkpt lat="56.868906510241" lon="14.790686826046">
        <ele>160.4</ele>
        <time>2020-02-12T12:24:26Z</time>
      </trkpt>
      <trkpt lat="56.868992508535" lon="14.790697303421">
        <ele>161</ele>
        <time>2020-02-12T12:24:34Z</time>
      </trkpt>
      <trkpt lat="56.868973313984" lon="14.790675761938">
        <ele>162.2</ele>
        <time>2020-02-12T12:24:35Z</time>
      </trkpt>
      <trkpt lat="56.868953951795" lon="14.790649107496">
        <ele>164.2</ele>
        <time>2020-02-12T12:24:36Z</time>
      </trkpt>
      <trkpt lat="56.868894440305" lon="14.790612478593">
        <ele>166.8</ele>
        <time>2020-02-12T12:24:39Z</time>
      </trkpt>
      <trkpt lat="56.868739878069" lon="14.790633181886">
        <ele>168.2</ele>
        <time>2020-02-12T12:24:45Z</time>
      </trkpt>
      <trkpt lat="56.86864926973" lon="14.790679030879">
        <ele>170</ele>
        <time>2020-02-12T12:24:48Z</time>
      </trkpt>
      <trkpt lat="56.8686014929" lon="14.790676348671">
        <ele>171.6</ele>
        <time>2020-02-12T12:24:50Z</time>
      </trkpt>
      <trkpt lat="56.868508202353" lon="14.790632259877">
        <ele>172.8</ele>
        <time>2020-02-12T12:24:54Z</time>
      </trkpt>
      <trkpt lat="56.868473585106" lon="14.790602168856">
        <ele>174</ele>
        <time>2020-02-12T12:24:56Z</time>
      </trkpt>
      <trkpt lat="56.86845564784" lon="14.790598313182">
        <ele>175.2</ele>
        <time>2020-02-12T12:24:57Z</time>
      </trkpt>
      <trkpt lat="56.868435196004" lon="14.790594457508">
        <ele>176.8</ele>
        <time>2020-02-12T12:24:58Z</time>
      </trkpt>
      <trkpt lat="56.868415582358" lon="14.790594122232">
        <ele>177.8</ele>
        <time>2020-02-12T12:24:59Z</time>
      </trkpt>
      <trkpt lat="56.868382557672" lon="14.790595211879">
        <ele>179.2</ele>
        <time>2020-02-12T12:25:01Z</time>
      </trkpt>
      <trkpt lat="56.868366129148" lon="14.79060434815">
        <ele>179.8</ele>
        <time>2020-02-12T12:25:02Z</time>
      </trkpt>
      <trkpt lat="56.868349113891" lon="14.79061608281">
        <ele>180.4</ele>
        <time>2020-02-12T12:25:03Z</time>
      </trkpt>
      <trkpt lat="56.868307958762" lon="14.790642150519">
        <ele>181.4</ele>
        <time>2020-02-12T12:25:06Z</time>
      </trkpt>
      <trkpt lat="56.868292619885" lon="14.790647850211">
        <ele>181.6</ele>
        <time>2020-02-12T12:25:08Z</time>
      </trkpt>
      <trkpt lat="56.868245681245" lon="14.790633936257">
        <ele>181.6</ele>
        <time>2020-02-12T12:25:15Z</time>
      </trkpt>
      <trkpt lat="56.868223972124" lon="14.790632930429">
        <ele>180.6</ele>
        <time>2020-02-12T12:25:18Z</time>
      </trkpt>
      <trkpt lat="56.868165550281" lon="14.790587332893">
        <ele>179.6</ele>
        <time>2020-02-12T12:25:26Z</time>
      </trkpt>
      <trkpt lat="56.868038815953" lon="14.790472165587">
        <ele>179</ele>
        <time>2020-02-12T12:25:38Z</time>
      </trkpt>
      <trkpt lat="56.868027081293" lon="14.790461436755">
        <ele>178.2</ele>
        <time>2020-02-12T12:25:40Z</time>
      </trkpt>
      <trkpt lat="56.867987267268" lon="14.790405361844">
        <ele>176.8</ele>
        <time>2020-02-12T12:25:43Z</time>
      </trkpt>
      <trkpt lat="56.867948710528" lon="14.790355657177">
        <ele>176.2</ele>
        <time>2020-02-12T12:25:45Z</time>
      </trkpt>
      <trkpt lat="56.867934796574" lon="14.790328416002">
        <ele>175.8</ele>
        <time>2020-02-12T12:25:46Z</time>
      </trkpt>
      <trkpt lat="56.867920966439" lon="14.790310394917">
        <ele>175.2</ele>
        <time>2020-02-12T12:25:47Z</time>
      </trkpt>
      <trkpt lat="56.867905292286" lon="14.790293714936">
        <ele>174.8</ele>
        <time>2020-02-12T12:25:48Z</time>
      </trkpt>
      <trkpt lat="56.867853911239" lon="14.790255242015">
        <ele>173.6</ele>
        <time>2020-02-12T12:25:52Z</time>
      </trkpt>
      <trkpt lat="56.867830693376" lon="14.790251553979">
        <ele>173.6</ele>
        <time>2020-02-12T12:25:54Z</time>
      </trkpt>
      <trkpt lat="56.867800434717" lon="14.790320537016">
        <ele>172.6</ele>
        <time>2020-02-12T12:26:00Z</time>
      </trkpt>
      <trkpt lat="56.867784173831" lon="14.79057668788">
        <ele>173.8</ele>
        <time>2020-02-12T12:26:07Z</time>
      </trkpt>
      <trkpt lat="56.86777252299" lon="14.790653717541">
        <ele>174.2</ele>
        <time>2020-02-12T12:26:09Z</time>
      </trkpt>
      <trkpt lat="56.867772606809" lon="14.790807944501">
        <ele>174.6</ele>
        <time>2020-02-12T12:26:13Z</time>
      </trkpt>
      <trkpt lat="56.867747209652" lon="14.790850189277">
        <ele>174.8</ele>
        <time>2020-02-12T12:26:15Z</time>
      </trkpt>
      <trkpt lat="56.867654673476" lon="14.79084071773">
        <ele>174.8</ele>
        <time>2020-02-12T12:26:21Z</time>
      </trkpt>
      <trkpt lat="56.86756297549" lon="14.790841388282">
        <ele>174.2</ele>
        <time>2020-02-12T12:26:25Z</time>
      </trkpt>
      <trkpt lat="56.867515366298" lon="14.79082395393">
        <ele>173.8</ele>
        <time>2020-02-12T12:26:27Z</time>
      </trkpt>
      <trkpt lat="56.867325600082" lon="14.790780619507">
        <ele>172.8</ele>
        <time>2020-02-12T12:26:35Z</time>
      </trkpt>
      <trkpt lat="56.867268267886" lon="14.790742900957">
        <ele>171.6</ele>
        <time>2020-02-12T12:26:38Z</time>
      </trkpt>
      <trkpt lat="56.867194423347" lon="14.79068900534">
        <ele>170.6</ele>
        <time>2020-02-12T12:26:41Z</time>
      </trkpt>
      <trkpt lat="56.867171037846" lon="14.790676935404">
        <ele>170.6</ele>
        <time>2020-02-12T12:26:42Z</time>
      </trkpt>
      <trkpt lat="56.867031227754" lon="14.790694118299">
        <ele>170.2</ele>
        <time>2020-02-12T12:26:47Z</time>
      </trkpt>
      <trkpt lat="56.866843221737" lon="14.790753965065">
        <ele>170</ele>
        <time>2020-02-12T12:26:54Z</time>
      </trkpt>
      <trkpt lat="56.866678601221" lon="14.790900648315">
        <ele>170.2</ele>
        <time>2020-02-12T12:27:01Z</time>
      </trkpt>
      <trkpt lat="56.866516411456" lon="14.7910192522">
        <ele>170</ele>
        <time>2020-02-12T12:27:08Z</time>
      </trkpt>
      <trkpt lat="56.86635095275" lon="14.791233996478">
        <ele>169.4</ele>
        <time>2020-02-12T12:27:17Z</time>
      </trkpt>
      <trkpt lat="56.866233187055" lon="14.791500037984">
        <ele>169.4</ele>
        <time>2020-02-12T12:27:25Z</time>
      </trkpt>
      <trkpt lat="56.86623528253" lon="14.791831374491">
        <ele>169.4</ele>
        <time>2020-02-12T12:27:32Z</time>
      </trkpt>
      <trkpt lat="56.866250789045" lon="14.792181402635">
        <ele>169.2</ele>
        <time>2020-02-12T12:27:39Z</time>
      </trkpt>
      <trkpt lat="56.86631826334" lon="14.792501004482">
        <ele>168.4</ele>
        <time>2020-02-12T12:27:47Z</time>
      </trkpt>
      <trkpt lat="56.866319185349" lon="14.792522462146">
        <ele>168.4</ele>
        <time>2020-02-12T12:27:48Z</time>
      </trkpt>
      <trkpt lat="56.866346175067" lon="14.792621536204">
        <ele>168.4</ele>
        <time>2020-02-12T12:27:52Z</time>
      </trkpt>
      <trkpt lat="56.866460336545" lon="14.792929906305">
        <ele>167.4</ele>
        <time>2020-02-12T12:28:01Z</time>
      </trkpt>
      <trkpt lat="56.866578521335" lon="14.793179854563">
        <ele>167.2</ele>
        <time>2020-02-12T12:28:09Z</time>
      </trkpt>
      <trkpt lat="56.86668706694" lon="14.793459558566">
        <ele>167</ele>
        <time>2020-02-12T12:28:17Z</time>
      </trkpt>
      <trkpt lat="56.866783291152" lon="14.793682349468">
        <ele>166.4</ele>
        <time>2020-02-12T12:28:22Z</time>
      </trkpt>
      <trkpt lat="56.866795947821" lon="14.793731970316">
        <ele>166.2</ele>
        <time>2020-02-12T12:28:23Z</time>
      </trkpt>
      <trkpt lat="56.866799719676" lon="14.793781842621">
        <ele>165.8</ele>
        <time>2020-02-12T12:28:24Z</time>
      </trkpt>
      <trkpt lat="56.866800641685" lon="14.793918886686">
        <ele>165</ele>
        <time>2020-02-12T12:28:27Z</time>
      </trkpt>
      <trkpt lat="56.866813465992" lon="14.794198758327">
        <ele>164</ele>
        <time>2020-02-12T12:28:33Z</time>
      </trkpt>
      <trkpt lat="56.86682872105" lon="14.794534285784">
        <ele>163.2</ele>
        <time>2020-02-12T12:28:40Z</time>
      </trkpt>
      <trkpt lat="56.866826374118" lon="14.794647106158">
        <ele>163</ele>
        <time>2020-02-12T12:28:42Z</time>
      </trkpt>
      <trkpt lat="56.866815980562" lon="14.794693290427">
        <ele>162.8</ele>
        <time>2020-02-12T12:28:43Z</time>
      </trkpt>
      <trkpt lat="56.866802653341" lon="14.7948330167">
        <ele>162.6</ele>
        <time>2020-02-12T12:28:45Z</time>
      </trkpt>
      <trkpt lat="56.86684045571" lon="14.795174327668">
        <ele>162</ele>
        <time>2020-02-12T12:28:51Z</time>
      </trkpt>
      <trkpt lat="56.866854202026" lon="14.795210453657">
        <ele>162</ele>
        <time>2020-02-12T12:28:52Z</time>
      </trkpt>
      <trkpt lat="56.866867864523" lon="14.795235515538">
        <ele>162</ele>
        <time>2020-02-12T12:28:54Z</time>
      </trkpt>
      <trkpt lat="56.8669418767" lon="14.795268959319">
        <ele>162.2</ele>
        <time>2020-02-12T12:29:01Z</time>
      </trkpt>
      <trkpt lat="56.866944055994" lon="14.795147924683">
        <ele>162</ele>
        <time>2020-02-12T12:29:04Z</time>
      </trkpt>
      <trkpt lat="56.866939865044" lon="14.795039295259">
        <ele>162.8</ele>
        <time>2020-02-12T12:29:08Z</time>
      </trkpt>
      <trkpt lat="56.866919329389" lon="14.794879452426">
        <ele>163.6</ele>
        <time>2020-02-12T12:29:14Z</time>
      </trkpt>
      <trkpt lat="56.866910360756" lon="14.794855312554">
        <ele>163.8</ele>
        <time>2020-02-12T12:29:15Z</time>
      </trkpt>
      <trkpt lat="56.866869708541" lon="14.79472237562">
        <ele>164</ele>
        <time>2020-02-12T12:29:18Z</time>
      </trkpt>
      <trkpt lat="56.866869959998" lon="14.79465364404">
        <ele>164.2</ele>
        <time>2020-02-12T12:29:21Z</time>
      </trkpt>
      <trkpt lat="56.866887981083" lon="14.794589187229">
        <ele>165</ele>
        <time>2020-02-12T12:29:24Z</time>
      </trkpt>
      <trkpt lat="56.866949504229" lon="14.794508720989">
        <ele>165.4</ele>
        <time>2020-02-12T12:29:28Z</time>
      </trkpt>
      <trkpt lat="56.866965848934" lon="14.794463877824">
        <ele>165.6</ele>
        <time>2020-02-12T12:29:30Z</time>
      </trkpt>
      <trkpt lat="56.867013625764" lon="14.794402606135">
        <ele>166</ele>
        <time>2020-02-12T12:29:33Z</time>
      </trkpt>
      <trkpt lat="56.867189561845" lon="14.794540069295">
        <ele>165</ele>
        <time>2020-02-12T12:29:42Z</time>
      </trkpt>
      <trkpt lat="56.867213617898" lon="14.79455892857">
        <ele>165</ele>
        <time>2020-02-12T12:29:43Z</time>
      </trkpt>
      <trkpt lat="56.867373293093" lon="14.794717597937">
        <ele>164.2</ele>
        <time>2020-02-12T12:29:49Z</time>
      </trkpt>
      <trkpt lat="56.867530118442" lon="14.794888504878">
        <ele>164</ele>
        <time>2020-02-12T12:29:55Z</time>
      </trkpt>
      <trkpt lat="56.867642016807" lon="14.795004175098">
        <ele>164.4</ele>
        <time>2020-02-12T12:30:00Z</time>
      </trkpt>
      <trkpt lat="56.867804960943" lon="14.795125628829">
        <ele>164.6</ele>
        <time>2020-02-12T12:30:08Z</time>
      </trkpt>
      <trkpt lat="56.867857263999" lon="14.795088245555">
        <ele>164.6</ele>
        <time>2020-02-12T12:30:11Z</time>
      </trkpt>
      <trkpt lat="56.86796698307" lon="14.794784820775">
        <ele>164.6</ele>
        <time>2020-02-12T12:30:22Z</time>
      </trkpt>
      <trkpt lat="56.868017442108" lon="14.794583738994">
        <ele>164.4</ele>
        <time>2020-02-12T12:30:27Z</time>
      </trkpt>
      <trkpt lat="56.868071840639" lon="14.794520539468">
        <ele>163.6</ele>
        <time>2020-02-12T12:30:30Z</time>
      </trkpt>
      <trkpt lat="56.868183906642" lon="14.794441749608">
        <ele>162.8</ele>
        <time>2020-02-12T12:30:34Z</time>
      </trkpt>
      <trkpt lat="56.868207040686" lon="14.794389865647">
        <ele>162.4</ele>
        <time>2020-02-12T12:30:35Z</time>
      </trkpt>
      <trkpt lat="56.868299493043" lon="14.794067916868">
        <ele>162</ele>
        <time>2020-02-12T12:30:41Z</time>
      </trkpt>
      <trkpt lat="56.868408960657" lon="14.793763737717">
        <ele>162.2</ele>
        <time>2020-02-12T12:30:48Z</time>
      </trkpt>
      <trkpt lat="56.868533180415" lon="14.793464839163">
        <ele>162.2</ele>
        <time>2020-02-12T12:30:54Z</time>
      </trkpt>
      <trkpt lat="56.868659244191" lon="14.793204748806">
        <ele>162.2</ele>
        <time>2020-02-12T12:30:59Z</time>
      </trkpt>
      <trkpt lat="56.868770472004" lon="14.792944406992">
        <ele>162.2</ele>
        <time>2020-02-12T12:31:04Z</time>
      </trkpt>
      <trkpt lat="56.868873653193" lon="14.792621117109">
        <ele>162</ele>
        <time>2020-02-12T12:31:11Z</time>
      </trkpt>
      <trkpt lat="56.868930314837" lon="14.79234191602">
        <ele>161.4</ele>
        <time>2020-02-12T12:31:16Z</time>
      </trkpt>
      <trkpt lat="56.86902729342" lon="14.792058523981">
        <ele>161.8</ele>
        <time>2020-02-12T12:31:22Z</time>
      </trkpt>
      <trkpt lat="56.869082278684" lon="14.791723415619">
        <ele>161.8</ele>
        <time>2020-02-12T12:31:29Z</time>
      </trkpt>
      <trkpt lat="56.869142712183" lon="14.791370537629">
        <ele>162.2</ele>
        <time>2020-02-12T12:31:36Z</time>
      </trkpt>
      <trkpt lat="56.86924438463" lon="14.791050432868">
        <ele>161.8</ele>
        <time>2020-02-12T12:31:42Z</time>
      </trkpt>
      <trkpt lat="56.869313367667" lon="14.790691603729">
        <ele>160.8</ele>
        <time>2020-02-12T12:31:49Z</time>
      </trkpt>
      <trkpt lat="56.869413531372" lon="14.790355070444">
        <ele>161.4</ele>
        <time>2020-02-12T12:31:56Z</time>
      </trkpt>
      <trkpt lat="56.869438257977" lon="14.79010730148">
        <ele>160.2</ele>
        <time>2020-02-12T12:32:01Z</time>
      </trkpt>
      <trkpt lat="56.869493662336" lon="14.789754172033">
        <ele>160.4</ele>
        <time>2020-02-12T12:32:08Z</time>
      </trkpt>
      <trkpt lat="56.869576894603" lon="14.789460637895">
        <ele>161</ele>
        <time>2020-02-12T12:32:14Z</time>
      </trkpt>
      <trkpt lat="56.869666329476" lon="14.789137348012">
        <ele>160.8</ele>
        <time>2020-02-12T12:32:21Z</time>
      </trkpt>
      <trkpt lat="56.869750064657" lon="14.789061156541">
        <ele>160.8</ele>
        <time>2020-02-12T12:32:24Z</time>
      </trkpt>
      <trkpt lat="56.869957768139" lon="14.789125864809">
        <ele>160.6</ele>
        <time>2020-02-12T12:32:31Z</time>
      </trkpt>
      <trkpt lat="56.870148707821" lon="14.789236673527">
        <ele>160.8</ele>
        <time>2020-02-12T12:32:38Z</time>
      </trkpt>
      <trkpt lat="56.870237807418" lon="14.789284869452">
        <ele>161.4</ele>
        <time>2020-02-12T12:32:41Z</time>
      </trkpt>
      <trkpt lat="56.870372420732" lon="14.789378746732">
        <ele>162.6</ele>
        <time>2020-02-12T12:32:45Z</time>
      </trkpt>
      <trkpt lat="56.870537544162" lon="14.789531297312">
        <ele>163.4</ele>
        <time>2020-02-12T12:32:51Z</time>
      </trkpt>
      <trkpt lat="56.870567132269" lon="14.789558538487">
        <ele>163.6</ele>
        <time>2020-02-12T12:32:52Z</time>
      </trkpt>
      <trkpt lat="56.870701075031" lon="14.78967479544">
        <ele>164.8</ele>
        <time>2020-02-12T12:32:56Z</time>
      </trkpt>
      <trkpt lat="56.870795706682" lon="14.78976783453">
        <ele>165.8</ele>
        <time>2020-02-12T12:32:59Z</time>
      </trkpt>
      <trkpt lat="56.870956471524" lon="14.789938154738">
        <ele>166.2</ele>
        <time>2020-02-12T12:33:04Z</time>
      </trkpt>
      <trkpt lat="56.871133078157" lon="14.790126915126">
        <ele>166.4</ele>
        <time>2020-02-12T12:33:10Z</time>
      </trkpt>
      <trkpt lat="56.871305661478" lon="14.790318860636">
        <ele>167</ele>
        <time>2020-02-12T12:33:16Z</time>
      </trkpt>
      <trkpt lat="56.871445303932" lon="14.790469818655">
        <ele>168.2</ele>
        <time>2020-02-12T12:33:21Z</time>
      </trkpt>
      <trkpt lat="56.871522668869" lon="14.790578950993">
        <ele>169.4</ele>
        <time>2020-02-12T12:33:24Z</time>
      </trkpt>
      <trkpt lat="56.871659712934" lon="14.790809620881">
        <ele>169.4</ele>
        <time>2020-02-12T12:33:30Z</time>
      </trkpt>
      <trkpt lat="56.871784016511" lon="14.791047834479">
        <ele>169.2</ele>
        <time>2020-02-12T12:33:36Z</time>
      </trkpt>
      <trkpt lat="56.871927682277" lon="14.791287305362">
        <ele>168.8</ele>
        <time>2020-02-12T12:33:43Z</time>
      </trkpt>
      <trkpt lat="56.871994066925" lon="14.79140649598">
        <ele>168.2</ele>
        <time>2020-02-12T12:33:46Z</time>
      </trkpt>
      <trkpt lat="56.872160699097" lon="14.79163616004">
        <ele>167.4</ele>
        <time>2020-02-12T12:33:52Z</time>
      </trkpt>
      <trkpt lat="56.87221241542" lon="14.791693492236">
        <ele>167.2</ele>
        <time>2020-02-12T12:33:54Z</time>
      </trkpt>
      <trkpt lat="56.872373096443" lon="14.791878648407">
        <ele>166.6</ele>
        <time>2020-02-12T12:34:00Z</time>
      </trkpt>
      <trkpt lat="56.872534112742" lon="14.792037569231">
        <ele>166.8</ele>
        <time>2020-02-12T12:34:07Z</time>
      </trkpt>
      <trkpt lat="56.872732260858" lon="14.792176289676">
        <ele>167.6</ele>
        <time>2020-02-12T12:34:14Z</time>
      </trkpt>
      <trkpt lat="56.872822953016" lon="14.792283661815">
        <ele>168.6</ele>
        <time>2020-02-12T12:34:17Z</time>
      </trkpt>
      <trkpt lat="56.872975084501" lon="14.792504105785">
        <ele>169.2</ele>
        <time>2020-02-12T12:34:23Z</time>
      </trkpt>
      <trkpt lat="56.873128221814" lon="14.792695883657">
        <ele>169</ele>
        <time>2020-02-12T12:34:30Z</time>
      </trkpt>
      <trkpt lat="56.873310947234" lon="14.792772661861">
        <ele>169.4</ele>
        <time>2020-02-12T12:34:38Z</time>
      </trkpt>
    </trkseg>
  </trk>
</gpx>